UAE380 OMDB-VHHH
Flight info
| Callsign | UAE380 |
|---|---|
| Flight time | 6h 53m |
| Altitude | 37000 |
| Route | ANVIX L223 KIPOK L313 TARDI N629 MUSUK T511 MCT G216 ALPOR M504 TELEM A791 GOLOX/N0477F390 A791 SEBMA Q19 JJS A791 CEA B465 CTG A599 LINSO/K0876S1190 A599 GULOT W146 XSJ W148 LXI A599 POU R473 SIERA |
| Aircraft | A388/J-SADE2E3FGHIJ3J4J5M1RWXY/LB1D1 |
Departure
| Time | 2026-04-20 20:43 |
|---|---|
| Airport | Dubai International Airport (OMDB) |
Arrival
| Time | 2026-04-21 03:37 |
|---|---|
| Airport | Hong Kong International Airport (VHHH) |
| Time | Latitude | Longitude | Altitude | Speed | Heading |
|---|---|---|---|---|---|
| 2026-04-20 20:17 | 25.25456 | 55.35276 | 29 ft | 0 kts | 211° |
| 2026-04-20 20:25 | 25.25461 | 55.35280 | 26 ft | 2 kts | 211° |
| 2026-04-20 20:25 | 25.25477 | 55.35291 | 32 ft | 3 kts | 211° |
| 2026-04-20 20:25 | 25.25495 | 55.35302 | 32 ft | 3 kts | 212° |
| 2026-04-20 20:26 | 25.25512 | 55.35315 | 32 ft | 3 kts | 217° |
| 2026-04-20 20:26 | 25.25526 | 55.35329 | 32 ft | 3 kts | 240° |
| 2026-04-20 20:26 | 25.25531 | 55.35344 | 32 ft | 2 kts | 295° |
| 2026-04-20 20:26 | 25.25526 | 55.35354 | 32 ft | 3 kts | 302° |
| 2026-04-20 20:27 | 25.25515 | 55.35373 | 32 ft | 3 kts | 302° |
| 2026-04-20 20:27 | 25.25508 | 55.35386 | 32 ft | 0 kts | 302° |
| 2026-04-20 20:33 | 25.25514 | 55.35375 | 32 ft | 4 kts | 302° |
| 2026-04-20 20:34 | 25.25537 | 55.35333 | 32 ft | 9 kts | 302° |
| 2026-04-20 20:34 | 25.25575 | 55.35266 | 30 ft | 12 kts | 302° |
| 2026-04-20 20:34 | 25.25624 | 55.35179 | 29 ft | 15 kts | 302° |
| 2026-04-20 20:34 | 25.25693 | 55.35152 | 31 ft | 7 kts | 20° |
| 2026-04-20 20:35 | 25.25745 | 55.35190 | 31 ft | 11 kts | 32° |
| 2026-04-20 20:35 | 25.25818 | 55.35240 | 26 ft | 14 kts | 31° |
| 2026-04-20 20:35 | 25.25908 | 55.35300 | 26 ft | 16 kts | 31° |
| 2026-04-20 20:35 | 25.25992 | 55.35365 | 27 ft | 12 kts | 58° |
| 2026-04-20 20:36 | 25.26018 | 55.35458 | 27 ft | 13 kts | 88° |
| 2026-04-20 20:36 | 25.25989 | 55.35558 | 28 ft | 15 kts | 120° |
| 2026-04-20 20:36 | 25.25932 | 55.35658 | 28 ft | 16 kts | 122° |
| 2026-04-20 20:36 | 25.25869 | 55.35767 | 28 ft | 17 kts | 121° |
| 2026-04-20 20:37 | 25.25806 | 55.35884 | 28 ft | 18 kts | 121° |
| 2026-04-20 20:37 | 25.25738 | 55.36005 | 28 ft | 19 kts | 122° |
| 2026-04-20 20:37 | 25.25668 | 55.36129 | 29 ft | 19 kts | 122° |
| 2026-04-20 20:37 | 25.25594 | 55.36258 | 29 ft | 20 kts | 122° |
| 2026-04-20 20:38 | 25.25520 | 55.36392 | 29 ft | 20 kts | 121° |
| 2026-04-20 20:38 | 25.25445 | 55.36525 | 29 ft | 21 kts | 122° |
| 2026-04-20 20:38 | 25.25370 | 55.36659 | 29 ft | 21 kts | 121° |
| 2026-04-20 20:38 | 25.25293 | 55.36798 | 29 ft | 21 kts | 122° |
| 2026-04-20 20:39 | 25.25214 | 55.36936 | 29 ft | 21 kts | 122° |
| 2026-04-20 20:39 | 25.25135 | 55.37075 | 30 ft | 21 kts | 122° |
| 2026-04-20 20:39 | 25.25058 | 55.37213 | 30 ft | 21 kts | 121° |
| 2026-04-20 20:39 | 25.24980 | 55.37353 | 30 ft | 21 kts | 122° |
| 2026-04-20 20:40 | 25.24901 | 55.37492 | 30 ft | 22 kts | 122° |
| 2026-04-20 20:40 | 25.24821 | 55.37635 | 30 ft | 22 kts | 121° |
| 2026-04-20 20:40 | 25.24740 | 55.37778 | 30 ft | 22 kts | 122° |
| 2026-04-20 20:40 | 25.24659 | 55.37923 | 29 ft | 22 kts | 122° |
| 2026-04-20 20:41 | 25.24636 | 55.38034 | 32 ft | 7 kts | 40° |
| 2026-04-20 20:41 | 25.24677 | 55.38071 | 32 ft | 8 kts | 34° |
| 2026-04-20 20:41 | 25.24723 | 55.38102 | 35 ft | 7 kts | 19° |
| 2026-04-20 20:41 | 25.24767 | 55.38097 | 36 ft | 7 kts | 331° |
| 2026-04-20 20:42 | 25.24792 | 55.38058 | 35 ft | 8 kts | 297° |
| 2026-04-20 20:42 | 25.24918 | 55.37826 | 35 ft | 72 kts | 301° |
| 2026-04-20 20:42 | 25.25300 | 55.37138 | 36 ft | 135 kts | 301° |
| 2026-04-20 20:42 | 25.25865 | 55.36119 | 55 ft | 170 kts | 301° |
| 2026-04-20 20:43 | 25.26498 | 55.34999 | 470 ft | 170 kts | 301° |
| 2026-04-20 20:43 | 25.27131 | 55.33869 | 848 ft | 176 kts | 301° |
| 2026-04-20 20:43 | 25.27766 | 55.32713 | 1278 ft | 176 kts | 301° |
| 2026-04-20 20:43 | 25.28401 | 55.31556 | 1710 ft | 177 kts | 302° |
| 2026-04-20 20:44 | 25.29038 | 55.30328 | 1865 ft | 191 kts | 292° |
| 2026-04-20 20:44 | 25.29216 | 55.28799 | 2007 ft | 215 kts | 262° |
| 2026-04-20 20:44 | 25.28655 | 55.27197 | 2335 ft | 233 kts | 244° |
| 2026-04-20 20:44 | 25.27919 | 55.25586 | 2987 ft | 235 kts | 246° |
| 2026-04-20 20:45 | 25.27205 | 55.23951 | 3636 ft | 239 kts | 246° |
| 2026-04-20 20:45 | 25.26491 | 55.22277 | 4262 ft | 243 kts | 247° |
| 2026-04-20 20:45 | 25.25770 | 55.20573 | 4909 ft | 246 kts | 247° |
| 2026-04-20 20:45 | 25.25043 | 55.18862 | 5630 ft | 246 kts | 246° |
| 2026-04-20 20:46 | 25.24009 | 55.17339 | 6292 ft | 254 kts | 220° |
| 2026-04-20 20:46 | 25.22400 | 55.16514 | 6949 ft | 261 kts | 192° |
| 2026-04-20 20:46 | 25.20590 | 55.16477 | 7488 ft | 271 kts | 175° |
| 2026-04-20 20:46 | 25.18765 | 55.17129 | 7937 ft | 283 kts | 147° |
| 2026-04-20 20:47 | 25.17365 | 55.18638 | 8579 ft | 284 kts | 121° |
| 2026-04-20 20:47 | 25.16434 | 55.20603 | 8978 ft | 298 kts | 113° |
| 2026-04-20 20:47 | 25.15567 | 55.22746 | 9335 ft | 311 kts | 112° |
| 2026-04-20 20:47 | 25.14649 | 55.24931 | 9941 ft | 315 kts | 114° |
| 2026-04-20 20:48 | 25.13677 | 55.27097 | 10610 ft | 316 kts | 116° |
| 2026-04-20 20:48 | 25.12664 | 55.29258 | 11240 ft | 318 kts | 117° |
| 2026-04-20 20:48 | 25.11630 | 55.31420 | 11877 ft | 319 kts | 117° |
| 2026-04-20 20:48 | 25.10596 | 55.33594 | 12499 ft | 321 kts | 115° |
| 2026-04-20 20:49 | 25.09673 | 55.35840 | 13117 ft | 323 kts | 114° |
| 2026-04-20 20:49 | 25.08745 | 55.38104 | 13747 ft | 325 kts | 114° |
| 2026-04-20 20:49 | 25.07807 | 55.40383 | 14266 ft | 328 kts | 115° |
| 2026-04-20 20:49 | 25.06861 | 55.42683 | 14719 ft | 334 kts | 114° |
| 2026-04-20 20:50 | 25.05916 | 55.45096 | 14861 ft | 350 kts | 113° |
| 2026-04-20 20:50 | 25.04952 | 55.47631 | 15024 ft | 366 kts | 113° |
| 2026-04-20 20:50 | 25.03948 | 55.50273 | 15179 ft | 381 kts | 113° |
| 2026-04-20 20:50 | 25.02908 | 55.52990 | 15602 ft | 386 kts | 113° |
| 2026-04-20 20:51 | 25.01800 | 55.55714 | 16030 ft | 391 kts | 118° |
| 2026-04-20 20:51 | 25.00422 | 55.58304 | 16524 ft | 394 kts | 122° |
| 2026-04-20 20:51 | 24.99007 | 55.60902 | 17016 ft | 397 kts | 122° |
| 2026-04-20 20:51 | 24.97586 | 55.63530 | 17504 ft | 400 kts | 122° |
| 2026-04-20 20:52 | 24.96174 | 55.66146 | 17963 ft | 404 kts | 122° |
| 2026-04-20 20:52 | 24.94713 | 55.68851 | 18394 ft | 407 kts | 122° |
| 2026-04-20 20:52 | 24.93137 | 55.71447 | 18797 ft | 408 kts | 128° |
| 2026-04-20 20:52 | 24.91447 | 55.73974 | 19194 ft | 411 kts | 128° |
| 2026-04-20 20:53 | 24.89774 | 55.76491 | 19603 ft | 414 kts | 128° |
| 2026-04-20 20:53 | 24.88073 | 55.79058 | 20010 ft | 417 kts | 128° |
| 2026-04-20 20:53 | 24.86359 | 55.81643 | 20382 ft | 420 kts | 128° |
| 2026-04-20 20:53 | 24.84633 | 55.84247 | 20804 ft | 421 kts | 128° |
| 2026-04-20 20:54 | 24.82895 | 55.86855 | 21179 ft | 424 kts | 129° |
| 2026-04-20 20:54 | 24.81126 | 55.89470 | 21567 ft | 427 kts | 129° |
| 2026-04-20 20:54 | 24.79347 | 55.92087 | 21952 ft | 429 kts | 129° |
| 2026-04-20 20:54 | 24.77409 | 55.94589 | 22313 ft | 429 kts | 137° |
| 2026-04-20 20:55 | 24.75229 | 55.96839 | 22699 ft | 430 kts | 140° |
| 2026-04-20 20:55 | 24.73028 | 55.99084 | 23086 ft | 433 kts | 140° |
| 2026-04-20 20:55 | 24.70819 | 56.01355 | 23448 ft | 436 kts | 140° |
| 2026-04-20 20:55 | 24.68602 | 56.03639 | 23777 ft | 438 kts | 140° |
| 2026-04-20 20:56 | 24.66372 | 56.05938 | 24109 ft | 440 kts | 140° |
| 2026-04-20 20:56 | 24.64133 | 56.08246 | 24413 ft | 443 kts | 140° |
| 2026-04-20 20:56 | 24.61881 | 56.10565 | 24737 ft | 445 kts | 140° |
| 2026-04-20 20:56 | 24.59615 | 56.12898 | 25071 ft | 447 kts | 140° |
| 2026-04-20 20:57 | 24.57346 | 56.15252 | 25409 ft | 450 kts | 137° |
| 2026-04-20 20:57 | 24.55247 | 56.17833 | 25758 ft | 454 kts | 133° |
| 2026-04-20 20:57 | 24.53190 | 56.20479 | 26076 ft | 457 kts | 133° |
| 2026-04-20 20:57 | 24.51141 | 56.23095 | 26463 ft | 459 kts | 133° |
| 2026-04-20 20:58 | 24.49029 | 56.25784 | 26832 ft | 462 kts | 133° |
| 2026-04-20 20:58 | 24.46921 | 56.28464 | 27226 ft | 465 kts | 133° |
| 2026-04-20 20:58 | 24.44829 | 56.31123 | 27643 ft | 467 kts | 133° |
| 2026-04-20 20:58 | 24.42704 | 56.33824 | 28086 ft | 469 kts | 133° |
| 2026-04-20 20:59 | 24.40566 | 56.36540 | 28461 ft | 472 kts | 133° |
| 2026-04-20 20:59 | 24.38411 | 56.39277 | 28870 ft | 475 kts | 133° |
| 2026-04-20 20:59 | 24.36243 | 56.42029 | 29265 ft | 478 kts | 133° |
| 2026-04-20 20:59 | 24.34063 | 56.44794 | 29664 ft | 481 kts | 133° |
| 2026-04-20 21:00 | 24.31867 | 56.47578 | 30032 ft | 484 kts | 133° |
| 2026-04-20 21:00 | 24.29680 | 56.50401 | 30356 ft | 488 kts | 129° |
| 2026-04-20 21:00 | 24.27669 | 56.53415 | 30718 ft | 491 kts | 127° |
| 2026-04-20 21:00 | 24.25663 | 56.56455 | 31062 ft | 494 kts | 127° |
| 2026-04-20 21:01 | 24.23640 | 56.59509 | 31433 ft | 496 kts | 127° |
| 2026-04-20 21:01 | 24.21606 | 56.62571 | 31790 ft | 499 kts | 127° |
| 2026-04-20 21:01 | 24.19556 | 56.65655 | 32115 ft | 502 kts | 127° |
| 2026-04-20 21:01 | 24.17495 | 56.68752 | 32456 ft | 505 kts | 127° |
| 2026-04-20 21:02 | 24.15422 | 56.71865 | 32803 ft | 507 kts | 127° |
| 2026-04-20 21:02 | 24.13334 | 56.74999 | 33123 ft | 510 kts | 127° |
| 2026-04-20 21:02 | 24.11240 | 56.78141 | 33462 ft | 513 kts | 127° |
| 2026-04-20 21:02 | 24.09129 | 56.81306 | 33781 ft | 516 kts | 127° |
| 2026-04-20 21:03 | 24.07006 | 56.84488 | 34032 ft | 520 kts | 127° |
| 2026-04-20 21:03 | 24.04868 | 56.87688 | 34252 ft | 524 kts | 126° |
| 2026-04-20 21:03 | 24.02708 | 56.90922 | 34464 ft | 528 kts | 126° |
| 2026-04-20 21:03 | 24.00533 | 56.94175 | 34697 ft | 532 kts | 126° |
| 2026-04-20 21:04 | 23.98344 | 56.97449 | 34961 ft | 535 kts | 126° |
| 2026-04-20 21:04 | 23.96142 | 57.00738 | 35228 ft | 537 kts | 126° |
| 2026-04-20 21:04 | 23.93941 | 57.04025 | 35489 ft | 540 kts | 126° |
| 2026-04-20 21:04 | 23.91701 | 57.07367 | 35750 ft | 543 kts | 126° |
| 2026-04-20 21:05 | 23.89461 | 57.10706 | 36023 ft | 546 kts | 126° |
| 2026-04-20 21:05 | 23.87219 | 57.14046 | 36464 ft | 544 kts | 126° |
| 2026-04-20 21:05 | 23.84983 | 57.17374 | 36796 ft | 544 kts | 126° |
| 2026-04-20 21:05 | 23.82731 | 57.20725 | 36854 ft | 552 kts | 126° |
| 2026-04-20 21:06 | 23.78160 | 57.27518 | 36845 ft | 552 kts | 126° |
| 2026-04-20 21:06 | 23.73919 | 57.34480 | 36857 ft | 552 kts | 115° |
| 2026-04-20 21:07 | 23.71380 | 57.42299 | 36842 ft | 543 kts | 98° |
| 2026-04-20 21:07 | 23.70209 | 57.50386 | 36833 ft | 539 kts | 95° |
| 2026-04-20 21:08 | 23.69051 | 57.58411 | 36833 ft | 539 kts | 95° |
| 2026-04-20 21:08 | 23.67876 | 57.66501 | 36838 ft | 540 kts | 95° |
| 2026-04-20 21:09 | 23.66701 | 57.74571 | 36847 ft | 538 kts | 95° |
| 2026-04-20 21:09 | 23.65524 | 57.82631 | 36839 ft | 538 kts | 95° |
| 2026-04-20 21:10 | 23.64535 | 57.89379 | 36839 ft | 537 kts | 95° |
| 2026-04-20 21:10 | 23.63361 | 57.97365 | 36845 ft | 536 kts | 96° |
| 2026-04-20 21:11 | 23.62178 | 58.05378 | 36820 ft | 535 kts | 96° |
| 2026-04-20 21:11 | 23.60994 | 58.13376 | 36808 ft | 534 kts | 96° |
| 2026-04-20 21:12 | 23.59874 | 58.21353 | 36803 ft | 530 kts | 92° |
| 2026-04-20 21:12 | 23.59831 | 58.29316 | 36814 ft | 522 kts | 80° |
| 2026-04-20 21:13 | 23.60978 | 58.37063 | 36796 ft | 516 kts | 75° |
| 2026-04-20 21:13 | 23.62272 | 58.44757 | 36782 ft | 516 kts | 75° |
| 2026-04-20 21:14 | 23.63554 | 58.52447 | 36793 ft | 515 kts | 75° |
| 2026-04-20 21:14 | 23.64831 | 58.60127 | 36792 ft | 514 kts | 75° |
| 2026-04-20 21:15 | 23.66104 | 58.67797 | 36791 ft | 514 kts | 75° |
| 2026-04-20 21:15 | 23.67375 | 58.75472 | 36794 ft | 514 kts | 75° |
| 2026-04-20 21:16 | 23.68642 | 58.83151 | 36793 ft | 514 kts | 75° |
| 2026-04-20 21:16 | 23.69911 | 58.90833 | 36796 ft | 515 kts | 75° |
| 2026-04-20 21:17 | 23.71176 | 58.98519 | 36799 ft | 515 kts | 75° |
| 2026-04-20 21:17 | 23.72440 | 59.06218 | 36830 ft | 515 kts | 76° |
| 2026-04-20 21:18 | 23.73695 | 59.13899 | 36822 ft | 514 kts | 76° |
| 2026-04-20 21:18 | 23.74946 | 59.21579 | 36823 ft | 513 kts | 76° |
| 2026-04-20 21:19 | 23.76182 | 59.29193 | 36827 ft | 512 kts | 76° |
| 2026-04-20 21:20 | 23.78039 | 59.40659 | 36831 ft | 510 kts | 77° |
| 2026-04-20 21:20 | 23.79265 | 59.48276 | 36821 ft | 509 kts | 77° |
| 2026-04-20 21:21 | 23.80483 | 59.55871 | 36810 ft | 507 kts | 77° |
| 2026-04-20 21:21 | 23.81693 | 59.63451 | 36827 ft | 506 kts | 78° |
| 2026-04-20 21:22 | 23.82895 | 59.71015 | 36814 ft | 505 kts | 78° |
| 2026-04-20 21:22 | 23.84090 | 59.78562 | 36809 ft | 504 kts | 78° |
| 2026-04-20 21:23 | 23.85282 | 59.86105 | 36807 ft | 504 kts | 78° |
| 2026-04-20 21:23 | 23.86473 | 59.93642 | 36798 ft | 504 kts | 79° |
| 2026-04-20 21:24 | 23.87660 | 60.01190 | 36801 ft | 504 kts | 79° |
| 2026-04-20 21:24 | 23.88845 | 60.08749 | 36808 ft | 505 kts | 79° |
| 2026-04-20 21:25 | 23.90028 | 60.16319 | 36814 ft | 506 kts | 79° |
| 2026-04-20 21:25 | 23.91211 | 60.23908 | 36812 ft | 507 kts | 79° |
| 2026-04-20 21:26 | 23.92390 | 60.31513 | 36824 ft | 508 kts | 79° |
| 2026-04-20 21:26 | 23.93560 | 60.39079 | 36828 ft | 509 kts | 79° |
| 2026-04-20 21:27 | 23.94735 | 60.46702 | 36839 ft | 509 kts | 80° |
| 2026-04-20 21:27 | 23.95908 | 60.54331 | 36848 ft | 509 kts | 80° |
| 2026-04-20 21:28 | 23.97074 | 60.61951 | 36845 ft | 508 kts | 81° |
| 2026-04-20 21:28 | 23.98235 | 60.69566 | 36836 ft | 507 kts | 81° |
| 2026-04-20 21:29 | 23.99392 | 60.77168 | 36838 ft | 506 kts | 81° |
| 2026-04-20 21:29 | 24.00543 | 60.84761 | 36831 ft | 506 kts | 81° |
| 2026-04-20 21:30 | 24.01688 | 60.92349 | 36830 ft | 505 kts | 81° |
| 2026-04-20 21:30 | 24.02829 | 60.99926 | 36826 ft | 505 kts | 81° |
| 2026-04-20 21:31 | 24.03964 | 61.07496 | 36834 ft | 504 kts | 81° |
| 2026-04-20 21:31 | 24.05096 | 61.15069 | 36832 ft | 504 kts | 81° |
| 2026-04-20 21:32 | 24.06223 | 61.22634 | 36833 ft | 504 kts | 81° |
| 2026-04-20 21:32 | 24.07318 | 61.30200 | 36826 ft | 503 kts | 84° |
| 2026-04-20 21:33 | 24.07555 | 61.37832 | 36833 ft | 501 kts | 94° |
| 2026-04-20 21:33 | 24.07078 | 61.45436 | 36830 ft | 501 kts | 94° |
| 2026-04-20 21:34 | 24.06635 | 61.53046 | 36828 ft | 501 kts | 94° |
| 2026-04-20 21:34 | 24.06186 | 61.60649 | 36832 ft | 501 kts | 94° |
| 2026-04-20 21:35 | 24.05727 | 61.68252 | 36832 ft | 501 kts | 94° |
| 2026-04-20 21:35 | 24.05263 | 61.75860 | 36828 ft | 501 kts | 94° |
| 2026-04-20 21:36 | 24.04794 | 61.83476 | 36833 ft | 501 kts | 94° |
| 2026-04-20 21:36 | 24.04322 | 61.91088 | 36831 ft | 502 kts | 94° |
| 2026-04-20 21:37 | 24.03848 | 61.98655 | 36838 ft | 502 kts | 94° |
| 2026-04-20 21:37 | 24.03370 | 62.06270 | 36841 ft | 502 kts | 94° |
| 2026-04-20 21:38 | 24.02887 | 62.13878 | 36843 ft | 501 kts | 94° |
| 2026-04-20 21:38 | 24.02401 | 62.21478 | 36848 ft | 501 kts | 94° |
| 2026-04-20 21:39 | 24.01912 | 62.29063 | 36857 ft | 499 kts | 94° |
| 2026-04-20 21:39 | 24.01419 | 62.36644 | 36847 ft | 499 kts | 94° |
| 2026-04-20 21:40 | 24.00924 | 62.44203 | 36832 ft | 498 kts | 94° |
| 2026-04-20 21:40 | 24.00426 | 62.51749 | 36814 ft | 498 kts | 94° |
| 2026-04-20 21:41 | 23.99926 | 62.59290 | 36835 ft | 497 kts | 94° |
| 2026-04-20 21:41 | 23.99422 | 62.66816 | 36827 ft | 496 kts | 94° |
| 2026-04-20 21:42 | 23.98914 | 62.74343 | 36841 ft | 496 kts | 94° |
| 2026-04-20 21:42 | 23.98402 | 62.81870 | 36827 ft | 496 kts | 94° |
| 2026-04-20 21:43 | 23.97888 | 62.89375 | 36852 ft | 495 kts | 94° |
| 2026-04-20 21:43 | 23.97372 | 62.96874 | 36841 ft | 494 kts | 94° |
| 2026-04-20 21:44 | 23.96853 | 63.04343 | 36838 ft | 493 kts | 94° |
| 2026-04-20 21:44 | 23.96335 | 63.11758 | 36831 ft | 492 kts | 94° |
| 2026-04-20 21:45 | 23.95811 | 63.19207 | 36838 ft | 491 kts | 94° |
| 2026-04-20 21:45 | 23.95283 | 63.26659 | 36830 ft | 491 kts | 94° |
| 2026-04-20 21:46 | 23.94752 | 63.34099 | 36829 ft | 491 kts | 94° |
| 2026-04-20 21:46 | 23.94216 | 63.41547 | 36825 ft | 492 kts | 94° |
| 2026-04-20 21:47 | 23.93678 | 63.48992 | 36841 ft | 491 kts | 95° |
| 2026-04-20 21:47 | 23.93135 | 63.56440 | 36841 ft | 491 kts | 95° |
| 2026-04-20 21:48 | 23.92590 | 63.63880 | 36842 ft | 491 kts | 95° |
| 2026-04-20 21:48 | 23.92041 | 63.71319 | 36841 ft | 491 kts | 95° |
| 2026-04-20 21:49 | 23.91489 | 63.78755 | 36850 ft | 491 kts | 95° |
| 2026-04-20 21:49 | 23.90933 | 63.86183 | 36847 ft | 490 kts | 95° |
| 2026-04-20 21:50 | 23.90374 | 63.93603 | 36843 ft | 490 kts | 95° |
| 2026-04-20 21:50 | 23.89812 | 64.01014 | 36848 ft | 489 kts | 95° |
| 2026-04-20 21:51 | 23.89248 | 64.08414 | 36830 ft | 489 kts | 95° |
| 2026-04-20 21:51 | 23.88681 | 64.15815 | 36835 ft | 489 kts | 95° |
| 2026-04-20 21:52 | 23.88110 | 64.23219 | 36831 ft | 489 kts | 95° |
| 2026-04-20 21:52 | 23.87533 | 64.30635 | 36838 ft | 490 kts | 95° |
| 2026-04-20 21:53 | 23.86953 | 64.38050 | 36848 ft | 490 kts | 95° |
| 2026-04-20 21:53 | 23.86369 | 64.45474 | 36851 ft | 490 kts | 94° |
| 2026-04-20 21:54 | 23.85782 | 64.52894 | 36847 ft | 490 kts | 94° |
| 2026-04-20 21:54 | 23.85192 | 64.60307 | 36847 ft | 490 kts | 94° |
| 2026-04-20 21:55 | 23.84598 | 64.67723 | 36844 ft | 490 kts | 94° |
| 2026-04-20 21:55 | 23.84002 | 64.75134 | 36847 ft | 490 kts | 94° |
| 2026-04-20 21:56 | 23.83407 | 64.82538 | 36851 ft | 489 kts | 94° |
| 2026-04-20 21:56 | 23.83359 | 64.89959 | 36849 ft | 488 kts | 89° |
| 2026-04-20 21:57 | 23.83423 | 64.97334 | 36850 ft | 489 kts | 89° |
| 2026-04-20 21:57 | 23.83463 | 65.03554 | 36850 ft | 489 kts | 89° |
| 2026-04-20 21:58 | 23.83511 | 65.12197 | 36832 ft | 490 kts | 89° |
| 2026-04-20 21:58 | 23.83547 | 65.19636 | 36834 ft | 490 kts | 89° |
| 2026-04-20 21:59 | 23.83575 | 65.25860 | 36873 ft | 489 kts | 89° |
| 2026-04-20 21:59 | 23.83605 | 65.33268 | 36861 ft | 487 kts | 89° |
| 2026-04-20 22:00 | 23.83631 | 65.40657 | 36853 ft | 486 kts | 89° |
| 2026-04-20 22:00 | 23.83653 | 65.48027 | 36842 ft | 485 kts | 89° |
| 2026-04-20 22:01 | 23.83672 | 65.55380 | 36838 ft | 484 kts | 89° |
| 2026-04-20 22:01 | 23.83687 | 65.62721 | 36830 ft | 484 kts | 88° |
| 2026-04-20 22:02 | 23.83699 | 65.70078 | 36824 ft | 484 kts | 89° |
| 2026-04-20 22:02 | 23.83708 | 65.77441 | 36827 ft | 485 kts | 89° |
| 2026-04-20 22:03 | 23.83713 | 65.84763 | 36833 ft | 486 kts | 89° |
| 2026-04-20 22:03 | 23.83715 | 65.92153 | 36842 ft | 487 kts | 89° |
| 2026-04-20 22:04 | 23.83712 | 65.99556 | 36838 ft | 488 kts | 89° |
| 2026-04-20 22:04 | 23.83707 | 66.06977 | 36843 ft | 489 kts | 89° |
| 2026-04-20 22:05 | 23.83698 | 66.14408 | 36844 ft | 490 kts | 89° |
| 2026-04-20 22:05 | 23.83685 | 66.21847 | 36864 ft | 490 kts | 89° |
| 2026-04-20 22:06 | 23.83669 | 66.29285 | 36856 ft | 490 kts | 89° |
| 2026-04-20 22:06 | 23.83649 | 66.36728 | 36868 ft | 490 kts | 89° |
| 2026-04-20 22:07 | 23.83625 | 66.44162 | 36853 ft | 489 kts | 89° |
| 2026-04-20 22:07 | 23.83598 | 66.51592 | 36849 ft | 489 kts | 89° |
| 2026-04-20 22:08 | 23.83568 | 66.59009 | 36848 ft | 488 kts | 88° |
| 2026-04-20 22:08 | 23.83533 | 66.66428 | 36850 ft | 488 kts | 88° |
| 2026-04-20 22:09 | 23.83496 | 66.73833 | 36850 ft | 488 kts | 88° |
| 2026-04-20 22:09 | 23.83455 | 66.81236 | 36841 ft | 487 kts | 89° |
| 2026-04-20 22:10 | 23.83411 | 66.88634 | 36839 ft | 487 kts | 89° |
| 2026-04-20 22:10 | 23.83363 | 66.96039 | 36848 ft | 487 kts | 88° |
| 2026-04-20 22:11 | 23.83879 | 67.03369 | 36849 ft | 483 kts | 78° |
| 2026-04-20 22:11 | 23.85102 | 67.10574 | 36845 ft | 482 kts | 77° |
| 2026-04-20 22:12 | 23.86296 | 67.17786 | 36837 ft | 482 kts | 78° |
| 2026-04-20 22:12 | 23.87484 | 67.24997 | 36854 ft | 481 kts | 77° |
| 2026-04-20 22:13 | 23.88669 | 67.32188 | 36847 ft | 480 kts | 77° |
| 2026-04-20 22:13 | 23.89848 | 67.39360 | 36841 ft | 479 kts | 77° |
| 2026-04-20 22:14 | 23.91022 | 67.46528 | 36836 ft | 479 kts | 77° |
| 2026-04-20 22:14 | 23.92193 | 67.53699 | 36819 ft | 479 kts | 77° |
| 2026-04-20 22:15 | 23.93352 | 67.60816 | 36835 ft | 479 kts | 77° |
| 2026-04-20 22:15 | 23.94524 | 67.68028 | 36833 ft | 478 kts | 77° |
| 2026-04-20 22:16 | 23.95674 | 67.75138 | 36835 ft | 478 kts | 77° |
| 2026-04-20 22:16 | 23.96830 | 67.82298 | 36830 ft | 478 kts | 77° |
| 2026-04-20 22:17 | 23.97982 | 67.89464 | 36831 ft | 479 kts | 77° |
| 2026-04-20 22:17 | 23.99132 | 67.96633 | 36832 ft | 479 kts | 77° |
| 2026-04-20 22:18 | 24.00279 | 68.03804 | 36835 ft | 479 kts | 77° |
| 2026-04-20 22:18 | 24.01422 | 68.10976 | 36834 ft | 479 kts | 77° |
| 2026-04-20 22:19 | 24.02563 | 68.18159 | 36833 ft | 479 kts | 77° |
| 2026-04-20 22:19 | 24.03695 | 68.25323 | 36850 ft | 477 kts | 76° |
| 2026-04-20 22:20 | 24.04825 | 68.32471 | 36848 ft | 476 kts | 76° |
| 2026-04-20 22:20 | 24.05949 | 68.39605 | 36847 ft | 475 kts | 76° |
| 2026-04-20 22:21 | 24.07067 | 68.46730 | 36830 ft | 475 kts | 76° |
| 2026-04-20 22:21 | 24.08180 | 68.53848 | 36840 ft | 474 kts | 76° |
| 2026-04-20 22:22 | 24.09287 | 68.60955 | 36831 ft | 474 kts | 75° |
| 2026-04-20 22:22 | 24.10393 | 68.68063 | 36824 ft | 473 kts | 75° |
| 2026-04-20 22:23 | 24.11437 | 68.75180 | 36820 ft | 475 kts | 79° |
| 2026-04-20 22:23 | 24.11651 | 68.82455 | 36821 ft | 481 kts | 86° |
| 2026-04-20 22:24 | 24.11533 | 68.89772 | 36819 ft | 481 kts | 86° |
| 2026-04-20 22:24 | 24.11436 | 68.97102 | 36824 ft | 482 kts | 86° |
| 2026-04-20 22:25 | 24.11330 | 69.04389 | 36826 ft | 482 kts | 86° |
| 2026-04-20 22:25 | 24.11218 | 69.11734 | 36833 ft | 483 kts | 86° |
| 2026-04-20 22:26 | 24.11101 | 69.19088 | 36836 ft | 483 kts | 86° |
| 2026-04-20 22:26 | 24.10981 | 69.26459 | 36822 ft | 485 kts | 86° |
| 2026-04-20 22:27 | 24.10794 | 69.37533 | 36834 ft | 486 kts | 86° |
| 2026-04-20 22:27 | 24.10664 | 69.44925 | 36835 ft | 486 kts | 86° |
| 2026-04-20 22:28 | 24.10531 | 69.52323 | 36837 ft | 486 kts | 86° |
| 2026-04-20 22:28 | 24.10395 | 69.59736 | 36819 ft | 488 kts | 86° |
| 2026-04-20 22:29 | 24.10254 | 69.67158 | 36823 ft | 488 kts | 86° |
| 2026-04-20 22:29 | 24.10109 | 69.74591 | 36827 ft | 489 kts | 86° |
| 2026-04-20 22:30 | 24.09961 | 69.82037 | 36838 ft | 489 kts | 86° |
| 2026-04-20 22:30 | 24.09809 | 69.89482 | 36820 ft | 490 kts | 87° |
| 2026-04-20 22:31 | 24.09653 | 69.96947 | 36826 ft | 491 kts | 87° |
| 2026-04-20 22:31 | 24.09493 | 70.04428 | 36829 ft | 492 kts | 87° |
| 2026-04-20 22:32 | 24.09329 | 70.11915 | 36829 ft | 492 kts | 87° |
| 2026-04-20 22:32 | 24.09161 | 70.19405 | 36832 ft | 492 kts | 87° |
| 2026-04-20 22:33 | 24.08991 | 70.26904 | 36815 ft | 494 kts | 88° |
| 2026-04-20 22:33 | 24.08815 | 70.34414 | 36825 ft | 494 kts | 88° |
| 2026-04-20 22:34 | 24.08635 | 70.41938 | 36831 ft | 495 kts | 88° |
| 2026-04-20 22:34 | 24.08452 | 70.49464 | 36825 ft | 495 kts | 88° |
| 2026-04-20 22:35 | 24.08266 | 70.56990 | 36810 ft | 496 kts | 88° |
| 2026-04-20 22:35 | 24.08077 | 70.64478 | 36817 ft | 496 kts | 88° |
| 2026-04-20 22:36 | 24.07882 | 70.72027 | 36819 ft | 496 kts | 88° |
| 2026-04-20 22:36 | 24.07683 | 70.79585 | 36813 ft | 497 kts | 88° |
| 2026-04-20 22:37 | 24.07481 | 70.87144 | 36819 ft | 497 kts | 88° |
| 2026-04-20 22:37 | 24.07276 | 70.94712 | 36807 ft | 498 kts | 88° |
| 2026-04-20 22:38 | 24.07067 | 71.02301 | 36810 ft | 499 kts | 88° |
| 2026-04-20 22:38 | 24.06852 | 71.09892 | 36813 ft | 500 kts | 88° |
| 2026-04-20 22:39 | 24.06636 | 71.17495 | 36812 ft | 500 kts | 88° |
| 2026-04-20 22:39 | 24.06416 | 71.25098 | 36813 ft | 500 kts | 88° |
| 2026-04-20 22:40 | 24.06192 | 71.32709 | 36812 ft | 500 kts | 88° |
| 2026-04-20 22:40 | 24.05964 | 71.40313 | 36809 ft | 500 kts | 88° |
| 2026-04-20 22:41 | 24.05733 | 71.47922 | 36816 ft | 500 kts | 88° |
| 2026-04-20 22:41 | 24.05498 | 71.55518 | 36815 ft | 500 kts | 88° |
| 2026-04-20 22:42 | 24.05258 | 71.63115 | 36823 ft | 499 kts | 88° |
| 2026-04-20 22:42 | 24.05017 | 71.70689 | 36807 ft | 498 kts | 88° |
| 2026-04-20 22:43 | 24.04771 | 71.78253 | 36808 ft | 497 kts | 88° |
| 2026-04-20 22:43 | 24.04566 | 71.84525 | 36798 ft | 496 kts | 88° |
| 2026-04-20 22:44 | 24.04315 | 71.92065 | 36797 ft | 496 kts | 89° |
| 2026-04-20 22:44 | 24.04061 | 71.99614 | 36779 ft | 497 kts | 89° |
| 2026-04-20 22:45 | 24.03801 | 72.07172 | 36781 ft | 498 kts | 89° |
| 2026-04-20 22:45 | 24.03538 | 72.14741 | 36797 ft | 499 kts | 89° |
| 2026-04-20 22:46 | 24.03270 | 72.22329 | 36803 ft | 499 kts | 89° |
| 2026-04-20 22:46 | 24.02999 | 72.29926 | 36794 ft | 501 kts | 90° |
| 2026-04-20 22:47 | 24.02722 | 72.37549 | 36802 ft | 502 kts | 90° |
| 2026-04-20 22:47 | 24.02441 | 72.45194 | 36817 ft | 503 kts | 90° |
| 2026-04-20 22:48 | 24.02155 | 72.52848 | 36823 ft | 504 kts | 90° |
| 2026-04-20 22:48 | 24.01866 | 72.60507 | 36832 ft | 504 kts | 90° |
| 2026-04-20 22:49 | 24.01581 | 72.68190 | 36797 ft | 506 kts | 90° |
| 2026-04-20 22:49 | 24.01662 | 72.75890 | 36805 ft | 507 kts | 87° |
| 2026-04-20 22:50 | 24.01829 | 72.83603 | 36813 ft | 508 kts | 88° |
| 2026-04-20 22:50 | 24.01940 | 72.91283 | 36822 ft | 509 kts | 88° |
| 2026-04-20 22:51 | 24.02031 | 72.99034 | 36807 ft | 511 kts | 89° |
| 2026-04-20 22:51 | 24.02116 | 73.06814 | 36815 ft | 512 kts | 89° |
| 2026-04-20 22:52 | 24.02197 | 73.14604 | 36831 ft | 513 kts | 89° |
| 2026-04-20 22:52 | 24.02275 | 73.22408 | 36835 ft | 513 kts | 89° |
| 2026-04-20 22:53 | 24.02349 | 73.30215 | 36845 ft | 514 kts | 89° |
| 2026-04-20 22:53 | 24.02421 | 73.38037 | 36822 ft | 515 kts | 89° |
| 2026-04-20 22:54 | 24.02487 | 73.45868 | 36837 ft | 515 kts | 89° |
| 2026-04-20 22:54 | 24.02549 | 73.53706 | 36830 ft | 515 kts | 89° |
| 2026-04-20 22:55 | 24.02608 | 73.61540 | 36833 ft | 515 kts | 89° |
| 2026-04-20 22:55 | 24.02664 | 73.69379 | 36805 ft | 516 kts | 90° |
| 2026-04-20 22:56 | 24.02714 | 73.77234 | 36815 ft | 517 kts | 90° |
| 2026-04-20 22:56 | 24.02757 | 73.85109 | 36820 ft | 518 kts | 90° |
| 2026-04-20 22:57 | 24.02797 | 73.92937 | 36828 ft | 519 kts | 90° |
| 2026-04-20 22:57 | 24.02833 | 74.00892 | 36834 ft | 519 kts | 91° |
| 2026-04-20 22:58 | 24.02867 | 74.08756 | 36817 ft | 521 kts | 91° |
| 2026-04-20 22:58 | 24.02970 | 74.16699 | 36826 ft | 523 kts | 90° |
| 2026-04-20 22:59 | 24.03101 | 74.24655 | 36840 ft | 524 kts | 90° |
| 2026-04-20 22:59 | 24.03216 | 74.32634 | 36844 ft | 525 kts | 90° |
| 2026-04-20 23:00 | 24.03324 | 74.40622 | 36840 ft | 526 kts | 91° |
| 2026-04-20 23:00 | 24.03425 | 74.48624 | 36846 ft | 527 kts | 91° |
| 2026-04-20 23:01 | 24.03522 | 74.56638 | 36864 ft | 527 kts | 91° |
| 2026-04-20 23:01 | 24.03616 | 74.64666 | 36868 ft | 528 kts | 91° |
| 2026-04-20 23:02 | 24.03440 | 74.72677 | 36866 ft | 525 kts | 99° |
| 2026-04-20 23:02 | 24.02028 | 74.80467 | 36863 ft | 520 kts | 110° |
| 2026-04-20 23:03 | 23.99883 | 74.88013 | 36866 ft | 519 kts | 110° |
| 2026-04-20 23:03 | 23.97768 | 74.95564 | 36863 ft | 519 kts | 110° |
| 2026-04-20 23:04 | 23.95645 | 75.03109 | 36844 ft | 519 kts | 110° |
| 2026-04-20 23:04 | 23.93517 | 75.10652 | 36843 ft | 519 kts | 111° |
| 2026-04-20 23:05 | 23.91393 | 75.18147 | 36846 ft | 520 kts | 111° |
| 2026-04-20 23:05 | 23.89249 | 75.25701 | 36864 ft | 521 kts | 111° |
| 2026-04-20 23:06 | 23.87097 | 75.33269 | 36867 ft | 522 kts | 111° |
| 2026-04-20 23:06 | 23.84939 | 75.40842 | 36868 ft | 523 kts | 111° |
| 2026-04-20 23:07 | 23.82775 | 75.48427 | 36861 ft | 523 kts | 112° |
| 2026-04-20 23:07 | 23.80603 | 75.56019 | 36871 ft | 524 kts | 112° |
| 2026-04-20 23:08 | 23.78423 | 75.63621 | 36875 ft | 525 kts | 112° |
| 2026-04-20 23:08 | 23.76239 | 75.71224 | 36872 ft | 525 kts | 112° |
| 2026-04-20 23:09 | 23.74050 | 75.78833 | 36870 ft | 525 kts | 112° |
| 2026-04-20 23:09 | 23.71858 | 75.86440 | 36861 ft | 525 kts | 113° |
| 2026-04-20 23:10 | 23.69659 | 75.94045 | 36862 ft | 526 kts | 113° |
| 2026-04-20 23:10 | 23.67453 | 76.01660 | 36867 ft | 527 kts | 113° |
| 2026-04-20 23:11 | 23.65231 | 76.09276 | 36863 ft | 527 kts | 113° |
| 2026-04-20 23:11 | 23.63004 | 76.16893 | 36865 ft | 527 kts | 114° |
| 2026-04-20 23:12 | 23.60772 | 76.24516 | 36865 ft | 528 kts | 114° |
| 2026-04-20 23:12 | 23.58535 | 76.32140 | 36872 ft | 528 kts | 114° |
| 2026-04-20 23:13 | 23.56291 | 76.39774 | 36871 ft | 529 kts | 114° |
| 2026-04-20 23:13 | 23.54043 | 76.47403 | 36870 ft | 529 kts | 114° |
| 2026-04-20 23:14 | 23.51790 | 76.55039 | 36862 ft | 530 kts | 114° |
| 2026-04-20 23:14 | 23.49545 | 76.62629 | 36864 ft | 530 kts | 114° |
| 2026-04-20 23:15 | 23.47283 | 76.70267 | 36861 ft | 530 kts | 115° |
| 2026-04-20 23:15 | 23.45012 | 76.77914 | 36879 ft | 531 kts | 115° |
| 2026-04-20 23:16 | 23.42737 | 76.85560 | 36875 ft | 531 kts | 115° |
| 2026-04-20 23:16 | 23.40454 | 76.93220 | 36863 ft | 532 kts | 115° |
| 2026-04-20 23:17 | 23.38164 | 77.00885 | 36868 ft | 533 kts | 115° |
| 2026-04-20 23:17 | 23.35867 | 77.08560 | 36867 ft | 533 kts | 115° |
| 2026-04-20 23:18 | 23.33565 | 77.16238 | 36867 ft | 534 kts | 115° |
| 2026-04-20 23:18 | 23.31259 | 77.23914 | 36856 ft | 534 kts | 115° |
| 2026-04-20 23:19 | 23.29064 | 77.31651 | 36853 ft | 540 kts | 110° |
| 2026-04-20 23:19 | 23.28048 | 77.39832 | 36847 ft | 552 kts | 97° |
| 2026-04-20 23:20 | 23.27741 | 77.48174 | 36833 ft | 552 kts | 98° |
| 2026-04-20 23:20 | 23.27393 | 77.56517 | 36836 ft | 553 kts | 98° |
| 2026-04-20 23:21 | 23.27039 | 77.64877 | 36814 ft | 554 kts | 98° |
| 2026-04-20 23:21 | 23.26683 | 77.73235 | 36828 ft | 554 kts | 98° |
| 2026-04-20 23:22 | 23.26322 | 77.81613 | 36819 ft | 554 kts | 98° |
| 2026-04-20 23:22 | 23.25956 | 77.89998 | 36821 ft | 555 kts | 98° |
| 2026-04-20 23:23 | 23.25587 | 77.98392 | 36817 ft | 556 kts | 99° |
| 2026-04-20 23:23 | 23.25211 | 78.06801 | 36824 ft | 557 kts | 99° |
| 2026-04-20 23:24 | 23.24832 | 78.15215 | 36828 ft | 557 kts | 99° |
| 2026-04-20 23:24 | 23.24446 | 78.23633 | 36829 ft | 557 kts | 99° |
| 2026-04-20 23:25 | 23.24059 | 78.31989 | 36825 ft | 557 kts | 99° |
| 2026-04-20 23:25 | 23.23666 | 78.40410 | 36817 ft | 557 kts | 99° |
| 2026-04-20 23:26 | 23.23268 | 78.48817 | 36820 ft | 557 kts | 99° |
| 2026-04-20 23:26 | 23.22866 | 78.57219 | 36812 ft | 556 kts | 99° |
| 2026-04-20 23:27 | 23.22459 | 78.65621 | 36815 ft | 556 kts | 99° |
| 2026-04-20 23:27 | 23.22049 | 78.74016 | 36799 ft | 556 kts | 99° |
| 2026-04-20 23:28 | 23.21856 | 78.82451 | 36802 ft | 559 kts | 96° |
| 2026-04-20 23:28 | 23.21792 | 78.90905 | 36804 ft | 560 kts | 96° |
| 2026-04-20 23:29 | 23.21684 | 78.99371 | 36808 ft | 560 kts | 97° |
| 2026-04-20 23:29 | 23.21552 | 79.07832 | 36794 ft | 560 kts | 97° |
| 2026-04-20 23:30 | 23.21414 | 79.16315 | 36795 ft | 561 kts | 97° |
| 2026-04-20 23:30 | 23.21272 | 79.24798 | 36802 ft | 562 kts | 97° |
| 2026-04-20 23:31 | 23.21125 | 79.33291 | 36802 ft | 562 kts | 97° |
| 2026-04-20 23:31 | 23.20975 | 79.41728 | 36805 ft | 562 kts | 97° |
| 2026-04-20 23:32 | 23.20819 | 79.50231 | 36792 ft | 563 kts | 97° |
| 2026-04-20 23:32 | 23.20654 | 79.58744 | 36806 ft | 563 kts | 98° |
| 2026-04-20 23:33 | 23.20369 | 79.65797 | 36808 ft | 562 kts | 99° |
| 2026-04-20 23:33 | 23.19976 | 79.74284 | 36808 ft | 562 kts | 99° |
| 2026-04-20 23:34 | 23.19603 | 79.82773 | 36787 ft | 563 kts | 99° |
| 2026-04-20 23:34 | 23.19236 | 79.91274 | 36800 ft | 563 kts | 99° |
| 2026-04-20 23:35 | 23.18678 | 80.04032 | 36787 ft | 564 kts | 99° |
| 2026-04-20 23:36 | 23.18273 | 80.12539 | 36790 ft | 564 kts | 99° |
| 2026-04-20 23:36 | 23.17824 | 80.21051 | 36793 ft | 564 kts | 99° |
| 2026-04-20 23:37 | 23.17376 | 80.29568 | 36806 ft | 565 kts | 99° |
| 2026-04-20 23:37 | 23.16927 | 80.38088 | 36808 ft | 565 kts | 99° |
| 2026-04-20 23:38 | 23.16475 | 80.46613 | 36813 ft | 565 kts | 99° |
| 2026-04-20 23:38 | 23.16017 | 80.55137 | 36805 ft | 565 kts | 99° |
| 2026-04-20 23:39 | 23.15554 | 80.63663 | 36792 ft | 565 kts | 99° |
| 2026-04-20 23:39 | 23.15088 | 80.72189 | 36801 ft | 565 kts | 99° |
| 2026-04-20 23:40 | 23.14620 | 80.80719 | 36807 ft | 566 kts | 99° |
| 2026-04-20 23:40 | 23.14159 | 80.89259 | 36809 ft | 566 kts | 99° |
| 2026-04-20 23:41 | 23.13699 | 80.97749 | 36796 ft | 567 kts | 99° |
| 2026-04-20 23:41 | 23.13227 | 81.06296 | 36797 ft | 567 kts | 99° |
| 2026-04-20 23:42 | 23.12750 | 81.14855 | 36804 ft | 568 kts | 99° |
| 2026-04-20 23:42 | 23.12268 | 81.23418 | 36805 ft | 568 kts | 99° |
| 2026-04-20 23:43 | 23.11780 | 81.31995 | 36807 ft | 569 kts | 99° |
| 2026-04-20 23:43 | 23.11288 | 81.40569 | 36809 ft | 569 kts | 99° |
| 2026-04-20 23:44 | 23.10792 | 81.49142 | 36809 ft | 569 kts | 99° |
| 2026-04-20 23:44 | 23.10291 | 81.57708 | 36802 ft | 568 kts | 99° |
| 2026-04-20 23:45 | 23.09785 | 81.66277 | 36785 ft | 568 kts | 100° |
| 2026-04-20 23:45 | 23.09275 | 81.74845 | 36784 ft | 569 kts | 100° |
| 2026-04-20 23:46 | 23.08760 | 81.83425 | 36784 ft | 569 kts | 100° |
| 2026-04-20 23:46 | 23.08239 | 81.92009 | 36786 ft | 570 kts | 100° |
| 2026-04-20 23:47 | 23.07713 | 82.00592 | 36787 ft | 570 kts | 100° |
| 2026-04-20 23:47 | 23.07184 | 82.09183 | 36789 ft | 570 kts | 100° |
| 2026-04-20 23:48 | 23.06651 | 82.17772 | 36794 ft | 570 kts | 99° |
| 2026-04-20 23:48 | 23.06265 | 82.26383 | 36788 ft | 571 kts | 98° |
| 2026-04-20 23:49 | 23.05922 | 82.35001 | 36782 ft | 571 kts | 98° |
| 2026-04-20 23:49 | 23.05552 | 82.43610 | 36774 ft | 571 kts | 98° |
| 2026-04-20 23:50 | 23.05169 | 82.52214 | 36772 ft | 571 kts | 99° |
| 2026-04-20 23:50 | 23.04781 | 82.60822 | 36768 ft | 571 kts | 99° |
| 2026-04-20 23:51 | 23.04388 | 82.69424 | 36768 ft | 571 kts | 99° |
| 2026-04-20 23:51 | 23.03990 | 82.78025 | 36767 ft | 571 kts | 99° |
| 2026-04-20 23:52 | 23.03589 | 82.86625 | 36776 ft | 570 kts | 99° |
| 2026-04-20 23:52 | 23.03183 | 82.95223 | 36778 ft | 570 kts | 99° |
| 2026-04-20 23:53 | 23.02772 | 83.03810 | 36782 ft | 570 kts | 99° |
| 2026-04-20 23:53 | 23.02360 | 83.12338 | 36785 ft | 569 kts | 99° |
| 2026-04-20 23:54 | 23.01940 | 83.20922 | 36796 ft | 569 kts | 99° |
| 2026-04-20 23:54 | 23.01516 | 83.29503 | 36796 ft | 569 kts | 99° |
| 2026-04-20 23:55 | 23.01088 | 83.38080 | 36815 ft | 569 kts | 99° |
| 2026-04-20 23:55 | 23.00655 | 83.46652 | 36820 ft | 569 kts | 99° |
| 2026-04-20 23:56 | 23.00216 | 83.55231 | 36820 ft | 569 kts | 99° |
| 2026-04-20 23:56 | 22.99773 | 83.63802 | 36852 ft | 568 kts | 99° |
| 2026-04-20 23:57 | 22.99327 | 83.72367 | 36852 ft | 568 kts | 99° |
| 2026-04-20 23:57 | 22.98876 | 83.80919 | 36850 ft | 567 kts | 99° |
| 2026-04-20 23:58 | 22.98423 | 83.89457 | 36878 ft | 565 kts | 99° |
| 2026-04-20 23:58 | 22.97966 | 83.97955 | 36862 ft | 564 kts | 99° |
| 2026-04-20 23:59 | 22.97504 | 84.06451 | 36861 ft | 563 kts | 99° |
| 2026-04-20 23:59 | 22.97036 | 84.14930 | 36858 ft | 562 kts | 99° |
| 2026-04-21 00:00 | 22.96428 | 84.23370 | 36857 ft | 561 kts | 101° |
| 2026-04-21 00:00 | 22.95792 | 84.31804 | 36854 ft | 560 kts | 100° |
| 2026-04-21 00:01 | 22.95171 | 84.40225 | 36862 ft | 560 kts | 100° |
| 2026-04-21 00:01 | 22.94552 | 84.48641 | 36858 ft | 560 kts | 100° |
| 2026-04-21 00:02 | 22.93929 | 84.57059 | 36861 ft | 560 kts | 100° |
| 2026-04-21 00:02 | 22.93299 | 84.65487 | 36972 ft | 564 kts | 100° |
| 2026-04-21 00:02 | 22.92981 | 84.69717 | 37432 ft | 562 kts | 100° |
| 2026-04-21 00:03 | 22.92665 | 84.73940 | 37926 ft | 561 kts | 100° |
| 2026-04-21 00:03 | 22.92347 | 84.78152 | 38369 ft | 560 kts | 100° |
| 2026-04-21 00:03 | 22.92028 | 84.82361 | 38737 ft | 560 kts | 100° |
| 2026-04-21 00:03 | 22.91705 | 84.86592 | 38857 ft | 563 kts | 100° |
| 2026-04-21 00:04 | 22.91387 | 84.90785 | 38876 ft | 555 kts | 100° |
| 2026-04-21 00:04 | 22.90746 | 84.99129 | 38878 ft | 556 kts | 101° |
| 2026-04-21 00:05 | 22.90098 | 85.07491 | 38877 ft | 556 kts | 100° |
| 2026-04-21 00:05 | 22.89449 | 85.15848 | 38873 ft | 556 kts | 100° |
| 2026-04-21 00:06 | 22.88804 | 85.24199 | 38871 ft | 556 kts | 100° |
| 2026-04-21 00:06 | 22.88158 | 85.32554 | 38869 ft | 556 kts | 100° |
| 2026-04-21 00:07 | 22.87506 | 85.40900 | 38868 ft | 556 kts | 101° |
| 2026-04-21 00:07 | 22.86848 | 85.49253 | 38856 ft | 556 kts | 100° |
| 2026-04-21 00:08 | 22.86187 | 85.57601 | 38860 ft | 556 kts | 100° |
| 2026-04-21 00:08 | 22.85526 | 85.65887 | 38843 ft | 555 kts | 101° |
| 2026-04-21 00:09 | 22.84856 | 85.74222 | 38822 ft | 555 kts | 101° |
| 2026-04-21 00:09 | 22.84182 | 85.82559 | 38820 ft | 556 kts | 101° |
| 2026-04-21 00:10 | 22.83504 | 85.90907 | 38803 ft | 556 kts | 101° |
| 2026-04-21 00:10 | 22.82820 | 85.99260 | 38789 ft | 556 kts | 101° |
| 2026-04-21 00:11 | 22.82133 | 86.07609 | 38776 ft | 556 kts | 101° |
| 2026-04-21 00:11 | 22.81440 | 86.15963 | 38778 ft | 556 kts | 101° |
| 2026-04-21 00:12 | 22.80876 | 86.24332 | 38770 ft | 558 kts | 98° |
| 2026-04-21 00:12 | 22.80476 | 86.32739 | 38808 ft | 558 kts | 98° |
| 2026-04-21 00:13 | 22.80044 | 86.41140 | 38807 ft | 559 kts | 98° |
| 2026-04-21 00:13 | 22.79584 | 86.49540 | 38788 ft | 558 kts | 98° |
| 2026-04-21 00:14 | 22.79120 | 86.57941 | 38782 ft | 559 kts | 98° |
| 2026-04-21 00:14 | 22.78652 | 86.66343 | 38785 ft | 559 kts | 98° |
| 2026-04-21 00:15 | 22.78179 | 86.74742 | 38785 ft | 558 kts | 98° |
| 2026-04-21 00:15 | 22.77701 | 86.83148 | 38777 ft | 559 kts | 98° |
| 2026-04-21 00:16 | 22.77220 | 86.91545 | 38776 ft | 559 kts | 98° |
| 2026-04-21 00:16 | 22.76734 | 86.99937 | 38763 ft | 558 kts | 98° |
| 2026-04-21 00:17 | 22.76244 | 87.08329 | 38763 ft | 558 kts | 98° |
| 2026-04-21 00:17 | 22.75750 | 87.16717 | 38742 ft | 558 kts | 98° |
| 2026-04-21 00:18 | 22.75251 | 87.25103 | 38763 ft | 557 kts | 98° |
| 2026-04-21 00:18 | 22.74752 | 87.33412 | 38753 ft | 556 kts | 98° |
| 2026-04-21 00:19 | 22.74328 | 87.40418 | 38750 ft | 556 kts | 98° |
| 2026-04-21 00:19 | 22.73819 | 87.48781 | 38744 ft | 556 kts | 98° |
| 2026-04-21 00:20 | 22.73221 | 87.58494 | 38738 ft | 556 kts | 98° |
| 2026-04-21 00:20 | 22.72702 | 87.66853 | 38738 ft | 556 kts | 98° |
| 2026-04-21 00:21 | 22.72264 | 87.73853 | 38727 ft | 556 kts | 98° |
| 2026-04-21 00:21 | 22.71737 | 87.82210 | 38729 ft | 556 kts | 98° |
| 2026-04-21 00:22 | 22.71206 | 87.90566 | 38733 ft | 556 kts | 98° |
| 2026-04-21 00:22 | 22.70670 | 87.98927 | 38735 ft | 557 kts | 98° |
| 2026-04-21 00:23 | 22.70130 | 88.07291 | 38731 ft | 557 kts | 98° |
| 2026-04-21 00:23 | 22.69584 | 88.15656 | 38728 ft | 557 kts | 98° |
| 2026-04-21 00:24 | 22.69036 | 88.24011 | 38725 ft | 557 kts | 98° |
| 2026-04-21 00:24 | 22.68482 | 88.32372 | 38721 ft | 556 kts | 98° |
| 2026-04-21 00:25 | 22.67929 | 88.40672 | 38718 ft | 556 kts | 98° |
| 2026-04-21 00:25 | 22.66972 | 88.48939 | 38713 ft | 550 kts | 105° |
| 2026-04-21 00:26 | 22.65594 | 88.57095 | 38721 ft | 551 kts | 105° |
| 2026-04-21 00:26 | 22.64242 | 88.65257 | 38725 ft | 551 kts | 105° |
| 2026-04-21 00:27 | 22.62882 | 88.73411 | 38730 ft | 551 kts | 105° |
| 2026-04-21 00:27 | 22.61513 | 88.81571 | 38738 ft | 551 kts | 105° |
| 2026-04-21 00:28 | 22.60140 | 88.89720 | 38742 ft | 550 kts | 105° |
| 2026-04-21 00:28 | 22.58973 | 88.97920 | 38743 ft | 553 kts | 101° |
| 2026-04-21 00:29 | 22.58080 | 89.06185 | 38749 ft | 553 kts | 101° |
| 2026-04-21 00:29 | 22.57173 | 89.14445 | 38754 ft | 553 kts | 101° |
| 2026-04-21 00:30 | 22.56259 | 89.22708 | 38749 ft | 553 kts | 101° |
| 2026-04-21 00:30 | 22.55340 | 89.30974 | 38752 ft | 553 kts | 101° |
| 2026-04-21 00:31 | 22.54418 | 89.39237 | 38758 ft | 553 kts | 101° |
| 2026-04-21 00:31 | 22.53491 | 89.47503 | 38753 ft | 553 kts | 101° |
| 2026-04-21 00:32 | 22.52561 | 89.55762 | 38753 ft | 553 kts | 101° |
| 2026-04-21 00:32 | 22.51626 | 89.64024 | 38758 ft | 553 kts | 101° |
| 2026-04-21 00:33 | 22.50686 | 89.72284 | 38758 ft | 553 kts | 101° |
| 2026-04-21 00:33 | 22.49743 | 89.80539 | 38763 ft | 553 kts | 101° |
| 2026-04-21 00:34 | 22.48795 | 89.88797 | 38765 ft | 553 kts | 101° |
| 2026-04-21 00:34 | 22.47844 | 89.97049 | 38764 ft | 553 kts | 101° |
| 2026-04-21 00:35 | 22.46888 | 90.05297 | 38769 ft | 552 kts | 101° |
| 2026-04-21 00:35 | 22.45931 | 90.13529 | 38768 ft | 552 kts | 101° |
| 2026-04-21 00:36 | 22.44975 | 90.21706 | 38771 ft | 551 kts | 101° |
| 2026-04-21 00:36 | 22.44011 | 90.29916 | 38769 ft | 551 kts | 101° |
| 2026-04-21 00:37 | 22.43043 | 90.38125 | 38778 ft | 550 kts | 101° |
| 2026-04-21 00:37 | 22.42072 | 90.46322 | 38788 ft | 550 kts | 101° |
| 2026-04-21 00:38 | 22.41098 | 90.54517 | 38775 ft | 550 kts | 101° |
| 2026-04-21 00:38 | 22.40119 | 90.62708 | 38779 ft | 550 kts | 101° |
| 2026-04-21 00:39 | 22.39137 | 90.70892 | 38774 ft | 550 kts | 101° |
| 2026-04-21 00:39 | 22.38148 | 90.79093 | 38786 ft | 550 kts | 101° |
| 2026-04-21 00:40 | 22.37157 | 90.87285 | 38787 ft | 550 kts | 101° |
| 2026-04-21 00:40 | 22.36161 | 90.95482 | 38791 ft | 550 kts | 101° |
| 2026-04-21 00:41 | 22.35161 | 91.03673 | 38796 ft | 550 kts | 101° |
| 2026-04-21 00:41 | 22.34156 | 91.11869 | 38793 ft | 550 kts | 101° |
| 2026-04-21 00:42 | 22.33146 | 91.20066 | 38788 ft | 550 kts | 101° |
| 2026-04-21 00:42 | 22.32134 | 91.28254 | 38796 ft | 550 kts | 101° |
| 2026-04-21 00:43 | 22.31125 | 91.36397 | 38798 ft | 550 kts | 101° |
| 2026-04-21 00:43 | 22.30148 | 91.44597 | 38792 ft | 551 kts | 100° |
| 2026-04-21 00:44 | 22.29227 | 91.52803 | 38790 ft | 551 kts | 100° |
| 2026-04-21 00:44 | 22.28291 | 91.61012 | 38794 ft | 551 kts | 100° |
| 2026-04-21 00:45 | 22.26868 | 91.73344 | 38806 ft | 552 kts | 100° |
| 2026-04-21 00:45 | 22.26161 | 91.81592 | 38804 ft | 554 kts | 92° |
| 2026-04-21 00:46 | 22.26755 | 91.89904 | 38790 ft | 556 kts | 82° |
| 2026-04-21 00:46 | 22.27926 | 91.98160 | 38789 ft | 556 kts | 82° |
| 2026-04-21 00:47 | 22.29061 | 92.06421 | 38795 ft | 556 kts | 82° |
| 2026-04-21 00:47 | 22.30195 | 92.14688 | 38803 ft | 557 kts | 82° |
| 2026-04-21 00:48 | 22.31328 | 92.22957 | 38807 ft | 557 kts | 82° |
| 2026-04-21 00:48 | 22.32459 | 92.31230 | 38813 ft | 557 kts | 82° |
| 2026-04-21 00:49 | 22.33598 | 92.39492 | 38817 ft | 557 kts | 82° |
| 2026-04-21 00:49 | 22.34733 | 92.47765 | 38831 ft | 556 kts | 82° |
| 2026-04-21 00:50 | 22.35862 | 92.56030 | 38825 ft | 556 kts | 82° |
| 2026-04-21 00:50 | 22.36987 | 92.64299 | 38839 ft | 556 kts | 82° |
| 2026-04-21 00:51 | 22.38108 | 92.72575 | 38834 ft | 558 kts | 82° |
| 2026-04-21 00:51 | 22.39225 | 92.80870 | 38856 ft | 558 kts | 82° |
| 2026-04-21 00:52 | 22.40337 | 92.89162 | 38858 ft | 557 kts | 82° |
| 2026-04-21 00:52 | 22.41451 | 92.97433 | 38872 ft | 555 kts | 82° |
| 2026-04-21 00:53 | 22.42550 | 93.05644 | 38905 ft | 556 kts | 82° |
| 2026-04-21 00:53 | 22.43654 | 93.13941 | 38898 ft | 557 kts | 82° |
| 2026-04-21 00:54 | 22.44754 | 93.22254 | 38934 ft | 561 kts | 82° |
| 2026-04-21 00:54 | 22.45864 | 93.30638 | 38931 ft | 563 kts | 82° |
| 2026-04-21 00:55 | 22.46965 | 93.39013 | 38933 ft | 563 kts | 82° |
| 2026-04-21 00:55 | 22.48060 | 93.47383 | 38935 ft | 563 kts | 82° |
| 2026-04-21 00:56 | 22.49152 | 93.55763 | 38901 ft | 562 kts | 82° |
| 2026-04-21 00:56 | 22.50239 | 93.64134 | 38895 ft | 562 kts | 82° |
| 2026-04-21 00:57 | 22.51320 | 93.72492 | 38888 ft | 561 kts | 82° |
| 2026-04-21 00:57 | 22.52396 | 93.80847 | 38886 ft | 560 kts | 82° |
| 2026-04-21 00:58 | 22.53463 | 93.89177 | 38852 ft | 559 kts | 82° |
| 2026-04-21 00:58 | 22.54523 | 93.97483 | 38805 ft | 556 kts | 82° |
| 2026-04-21 00:59 | 22.55578 | 94.05775 | 38794 ft | 556 kts | 82° |
| 2026-04-21 00:59 | 22.56628 | 94.14058 | 38779 ft | 556 kts | 82° |
| 2026-04-21 01:00 | 22.57673 | 94.22344 | 38782 ft | 555 kts | 82° |
| 2026-04-21 01:00 | 22.58713 | 94.30629 | 38786 ft | 555 kts | 82° |
| 2026-04-21 01:01 | 22.59744 | 94.38865 | 38785 ft | 556 kts | 82° |
| 2026-04-21 01:01 | 22.60776 | 94.47160 | 38780 ft | 556 kts | 82° |
| 2026-04-21 01:02 | 22.61803 | 94.55446 | 38785 ft | 556 kts | 82° |
| 2026-04-21 01:02 | 22.62827 | 94.63740 | 38781 ft | 556 kts | 82° |
| 2026-04-21 01:03 | 22.63847 | 94.72038 | 38782 ft | 556 kts | 82° |
| 2026-04-21 01:03 | 22.64862 | 94.80332 | 38774 ft | 556 kts | 82° |
| 2026-04-21 01:04 | 22.65872 | 94.88621 | 38777 ft | 555 kts | 82° |
| 2026-04-21 01:04 | 22.66878 | 94.96915 | 38774 ft | 555 kts | 82° |
| 2026-04-21 01:05 | 22.67878 | 95.05200 | 38769 ft | 555 kts | 82° |
| 2026-04-21 01:05 | 22.68876 | 95.13494 | 38771 ft | 555 kts | 82° |
| 2026-04-21 01:06 | 22.69869 | 95.21788 | 38786 ft | 555 kts | 82° |
| 2026-04-21 01:06 | 22.70859 | 95.30091 | 38772 ft | 556 kts | 82° |
| 2026-04-21 01:07 | 22.71844 | 95.38401 | 38766 ft | 557 kts | 82° |
| 2026-04-21 01:07 | 22.72821 | 95.46672 | 38765 ft | 557 kts | 82° |
| 2026-04-21 01:08 | 22.73801 | 95.55006 | 38772 ft | 558 kts | 82° |
| 2026-04-21 01:08 | 22.74619 | 95.61991 | 38773 ft | 558 kts | 82° |
| 2026-04-21 01:09 | 22.75593 | 95.70339 | 38779 ft | 558 kts | 82° |
| 2026-04-21 01:09 | 22.76561 | 95.78682 | 38782 ft | 558 kts | 82° |
| 2026-04-21 01:10 | 22.77525 | 95.87030 | 38782 ft | 558 kts | 82° |
| 2026-04-21 01:10 | 22.78477 | 95.95310 | 38793 ft | 558 kts | 82° |
| 2026-04-21 01:11 | 22.79432 | 96.03653 | 38794 ft | 558 kts | 82° |
| 2026-04-21 01:11 | 22.80382 | 96.11991 | 38809 ft | 557 kts | 82° |
| 2026-04-21 01:12 | 22.81327 | 96.20322 | 38813 ft | 557 kts | 82° |
| 2026-04-21 01:12 | 22.82268 | 96.28657 | 38829 ft | 557 kts | 82° |
| 2026-04-21 01:13 | 22.83204 | 96.36994 | 38829 ft | 557 kts | 82° |
| 2026-04-21 01:13 | 22.84131 | 96.45321 | 38834 ft | 556 kts | 82° |
| 2026-04-21 01:14 | 22.85058 | 96.53645 | 38825 ft | 556 kts | 82° |
| 2026-04-21 01:14 | 22.85982 | 96.61967 | 38843 ft | 556 kts | 82° |
| 2026-04-21 01:15 | 22.86900 | 96.70293 | 38845 ft | 556 kts | 82° |
| 2026-04-21 01:15 | 22.87813 | 96.78621 | 38851 ft | 557 kts | 82° |
| 2026-04-21 01:16 | 22.88722 | 96.86955 | 38867 ft | 557 kts | 82° |
| 2026-04-21 01:16 | 22.89627 | 96.95294 | 38871 ft | 557 kts | 82° |
| 2026-04-21 01:17 | 22.90526 | 97.03618 | 38872 ft | 555 kts | 82° |
| 2026-04-21 01:17 | 22.91421 | 97.11941 | 38867 ft | 556 kts | 82° |
| 2026-04-21 01:18 | 22.92312 | 97.20274 | 38866 ft | 555 kts | 82° |
| 2026-04-21 01:18 | 22.93196 | 97.28588 | 38862 ft | 555 kts | 82° |
| 2026-04-21 01:19 | 22.94079 | 97.36905 | 38880 ft | 555 kts | 82° |
| 2026-04-21 01:19 | 22.94955 | 97.45223 | 38874 ft | 555 kts | 82° |
| 2026-04-21 01:20 | 22.95827 | 97.53546 | 38875 ft | 555 kts | 82° |
| 2026-04-21 01:20 | 22.96697 | 97.61867 | 38869 ft | 555 kts | 82° |
| 2026-04-21 01:21 | 22.97558 | 97.70130 | 38869 ft | 555 kts | 82° |
| 2026-04-21 01:21 | 22.99114 | 97.78277 | 38869 ft | 550 kts | 69° |
| 2026-04-21 01:22 | 23.01752 | 97.86037 | 38867 ft | 548 kts | 66° |
| 2026-04-21 01:22 | 23.04405 | 97.93790 | 38883 ft | 548 kts | 66° |
| 2026-04-21 01:23 | 23.07053 | 98.01549 | 38896 ft | 547 kts | 66° |
| 2026-04-21 01:23 | 23.09694 | 98.09291 | 38901 ft | 547 kts | 66° |
| 2026-04-21 01:24 | 23.12328 | 98.17025 | 38897 ft | 546 kts | 66° |
| 2026-04-21 01:24 | 23.14959 | 98.24762 | 38890 ft | 545 kts | 66° |
| 2026-04-21 01:25 | 23.17581 | 98.32489 | 38889 ft | 544 kts | 66° |
| 2026-04-21 01:25 | 23.20190 | 98.40184 | 38895 ft | 543 kts | 66° |
| 2026-04-21 01:26 | 23.22793 | 98.47884 | 38912 ft | 542 kts | 67° |
| 2026-04-21 01:26 | 23.25387 | 98.55576 | 38907 ft | 542 kts | 67° |
| 2026-04-21 01:27 | 23.27977 | 98.63263 | 38894 ft | 541 kts | 67° |
| 2026-04-21 01:27 | 23.30554 | 98.70929 | 38884 ft | 540 kts | 67° |
| 2026-04-21 01:28 | 23.33129 | 98.78596 | 38911 ft | 538 kts | 67° |
| 2026-04-21 01:28 | 23.35675 | 98.86195 | 38916 ft | 538 kts | 67° |
| 2026-04-21 01:29 | 23.38227 | 98.93846 | 38906 ft | 538 kts | 68° |
| 2026-04-21 01:29 | 23.40649 | 99.01560 | 38915 ft | 538 kts | 68° |
| 2026-04-21 01:30 | 23.43039 | 99.09254 | 38911 ft | 535 kts | 68° |
| 2026-04-21 01:30 | 23.45436 | 99.16929 | 38918 ft | 535 kts | 68° |
| 2026-04-21 01:31 | 23.47838 | 99.24605 | 38936 ft | 536 kts | 68° |
| 2026-04-21 01:31 | 23.50241 | 99.32305 | 38924 ft | 536 kts | 68° |
| 2026-04-21 01:32 | 23.52735 | 99.39964 | 38915 ft | 535 kts | 63° |
| 2026-04-21 01:32 | 23.56163 | 99.47119 | 38927 ft | 531 kts | 56° |
| 2026-04-21 01:33 | 23.59828 | 99.54121 | 38934 ft | 532 kts | 56° |
| 2026-04-21 01:33 | 23.63481 | 99.61147 | 38941 ft | 533 kts | 56° |
| 2026-04-21 01:34 | 23.67138 | 99.68179 | 38940 ft | 533 kts | 56° |
| 2026-04-21 01:34 | 23.70800 | 99.75222 | 38950 ft | 533 kts | 56° |
| 2026-04-21 01:35 | 23.74453 | 99.82260 | 38945 ft | 533 kts | 56° |
| 2026-04-21 01:35 | 23.78107 | 99.89308 | 38948 ft | 534 kts | 57° |
| 2026-04-21 01:36 | 23.81761 | 99.96368 | 38957 ft | 533 kts | 57° |
| 2026-04-21 01:36 | 23.85400 | 100.03411 | 38940 ft | 532 kts | 56° |
| 2026-04-21 01:37 | 23.89028 | 100.10442 | 38937 ft | 531 kts | 57° |
| 2026-04-21 01:37 | 23.92653 | 100.17474 | 38936 ft | 531 kts | 57° |
| 2026-04-21 01:38 | 23.96246 | 100.24457 | 38923 ft | 530 kts | 57° |
| 2026-04-21 01:38 | 23.99854 | 100.31476 | 38914 ft | 529 kts | 57° |
| 2026-04-21 01:39 | 24.03455 | 100.38496 | 38950 ft | 529 kts | 57° |
| 2026-04-21 01:39 | 24.07066 | 100.45541 | 38932 ft | 532 kts | 57° |
| 2026-04-21 01:40 | 24.10690 | 100.52624 | 38947 ft | 534 kts | 57° |
| 2026-04-21 01:40 | 24.14304 | 100.59738 | 38970 ft | 535 kts | 57° |
| 2026-04-21 01:41 | 24.17883 | 100.66891 | 38969 ft | 536 kts | 58° |
| 2026-04-21 01:41 | 24.21462 | 100.74049 | 38987 ft | 536 kts | 58° |
| 2026-04-21 01:42 | 24.25046 | 100.81214 | 38982 ft | 536 kts | 58° |
| 2026-04-21 01:42 | 24.28626 | 100.88381 | 38985 ft | 535 kts | 57° |
| 2026-04-21 01:43 | 24.32195 | 100.95534 | 38993 ft | 535 kts | 58° |
| 2026-04-21 01:43 | 24.35757 | 101.02689 | 38989 ft | 534 kts | 58° |
| 2026-04-21 01:44 | 24.39313 | 101.09841 | 38986 ft | 534 kts | 58° |
| 2026-04-21 01:44 | 24.42865 | 101.16994 | 38981 ft | 534 kts | 58° |
| 2026-04-21 01:45 | 24.46413 | 101.24152 | 38972 ft | 534 kts | 58° |
| 2026-04-21 01:45 | 24.49959 | 101.31316 | 38997 ft | 534 kts | 58° |
| 2026-04-21 01:46 | 24.53510 | 101.38501 | 38979 ft | 536 kts | 58° |
| 2026-04-21 01:46 | 24.57060 | 101.45696 | 38993 ft | 535 kts | 58° |
| 2026-04-21 01:47 | 24.60399 | 101.52968 | 38966 ft | 540 kts | 65° |
| 2026-04-21 01:47 | 24.62384 | 101.60962 | 38987 ft | 546 kts | 80° |
| 2026-04-21 01:48 | 24.62936 | 101.69293 | 38990 ft | 548 kts | 86° |
| 2026-04-21 01:48 | 24.63344 | 101.77678 | 39010 ft | 550 kts | 86° |
| 2026-04-21 01:49 | 24.63749 | 101.86085 | 39018 ft | 551 kts | 86° |
| 2026-04-21 01:49 | 24.64141 | 101.94503 | 39027 ft | 552 kts | 86° |
| 2026-04-21 01:50 | 24.64529 | 102.02929 | 39035 ft | 552 kts | 86° |
| 2026-04-21 01:50 | 24.64911 | 102.11350 | 39044 ft | 552 kts | 86° |
| 2026-04-21 01:51 | 24.65288 | 102.19766 | 39073 ft | 551 kts | 86° |
| 2026-04-21 01:51 | 24.65659 | 102.28180 | 39062 ft | 551 kts | 86° |
| 2026-04-21 01:52 | 24.66208 | 102.40785 | 39057 ft | 550 kts | 86° |
| 2026-04-21 01:53 | 24.66567 | 102.49174 | 39067 ft | 549 kts | 86° |
| 2026-04-21 01:53 | 24.66921 | 102.57562 | 39065 ft | 549 kts | 86° |
| 2026-04-21 01:54 | 24.67384 | 102.65866 | 39053 ft | 548 kts | 85° |
| 2026-04-21 01:54 | 24.67833 | 102.74230 | 39048 ft | 548 kts | 89° |
| 2026-04-21 01:55 | 24.67039 | 102.82541 | 39040 ft | 547 kts | 103° |
| 2026-04-21 01:55 | 24.64738 | 102.90486 | 39035 ft | 545 kts | 112° |
| 2026-04-21 01:56 | 24.62104 | 102.98295 | 39025 ft | 545 kts | 112° |
| 2026-04-21 01:56 | 24.59926 | 103.04787 | 39042 ft | 544 kts | 112° |
| 2026-04-21 01:57 | 24.57307 | 103.12603 | 39016 ft | 545 kts | 110° |
| 2026-04-21 01:57 | 24.55532 | 103.20701 | 39013 ft | 547 kts | 98° |
| 2026-04-21 01:58 | 24.55046 | 103.29044 | 39022 ft | 548 kts | 90° |
| 2026-04-21 01:58 | 24.54881 | 103.37400 | 39018 ft | 548 kts | 91° |
| 2026-04-21 01:59 | 24.54689 | 103.45766 | 39023 ft | 548 kts | 91° |
| 2026-04-21 01:59 | 24.54496 | 103.54128 | 39015 ft | 547 kts | 91° |
| 2026-04-21 02:00 | 24.54299 | 103.62490 | 39014 ft | 547 kts | 91° |
| 2026-04-21 02:00 | 24.54085 | 103.70845 | 39000 ft | 547 kts | 93° |
| 2026-04-21 02:01 | 24.53000 | 103.79097 | 38971 ft | 546 kts | 104° |
| 2026-04-21 02:01 | 24.51252 | 103.87211 | 38965 ft | 547 kts | 104° |
| 2026-04-21 02:02 | 24.49534 | 103.95360 | 38914 ft | 548 kts | 104° |
| 2026-04-21 02:02 | 24.47805 | 104.03524 | 38924 ft | 550 kts | 104° |
| 2026-04-21 02:03 | 24.46065 | 104.11695 | 38913 ft | 549 kts | 104° |
| 2026-04-21 02:03 | 24.44320 | 104.19850 | 38896 ft | 550 kts | 104° |
| 2026-04-21 02:04 | 24.42567 | 104.28032 | 38887 ft | 552 kts | 103° |
| 2026-04-21 02:04 | 24.40810 | 104.36241 | 38878 ft | 552 kts | 103° |
| 2026-04-21 02:05 | 24.39052 | 104.44385 | 38870 ft | 553 kts | 103° |
| 2026-04-21 02:05 | 24.37279 | 104.52594 | 38851 ft | 552 kts | 103° |
| 2026-04-21 02:06 | 24.35505 | 104.60795 | 38853 ft | 553 kts | 103° |
| 2026-04-21 02:06 | 24.33720 | 104.69009 | 38838 ft | 554 kts | 103° |
| 2026-04-21 02:07 | 24.31931 | 104.77219 | 38841 ft | 553 kts | 104° |
| 2026-04-21 02:07 | 24.30140 | 104.85416 | 38838 ft | 553 kts | 104° |
| 2026-04-21 02:08 | 24.28347 | 104.93598 | 38827 ft | 552 kts | 103° |
| 2026-04-21 02:08 | 24.26553 | 105.01773 | 38818 ft | 551 kts | 103° |
| 2026-04-21 02:09 | 24.24758 | 105.09927 | 38817 ft | 550 kts | 104° |
| 2026-04-21 02:09 | 24.22964 | 105.18063 | 38815 ft | 549 kts | 104° |
| 2026-04-21 02:10 | 24.21125 | 105.26185 | 38820 ft | 549 kts | 105° |
| 2026-04-21 02:10 | 24.19143 | 105.34262 | 38804 ft | 549 kts | 105° |
| 2026-04-21 02:11 | 24.17164 | 105.42342 | 38805 ft | 550 kts | 105° |
| 2026-04-21 02:11 | 24.15194 | 105.50433 | 38822 ft | 551 kts | 105° |
| 2026-04-21 02:12 | 24.13218 | 105.58553 | 38832 ft | 551 kts | 105° |
| 2026-04-21 02:12 | 24.11238 | 105.66656 | 38814 ft | 551 kts | 105° |
| 2026-04-21 02:13 | 24.09344 | 105.74782 | 38810 ft | 551 kts | 102° |
| 2026-04-21 02:13 | 24.07802 | 105.83004 | 38846 ft | 551 kts | 101° |
| 2026-04-21 02:14 | 24.06237 | 105.91215 | 38815 ft | 552 kts | 101° |
| 2026-04-21 02:14 | 24.04629 | 105.99432 | 38824 ft | 552 kts | 102° |
| 2026-04-21 02:15 | 24.03004 | 106.07622 | 38839 ft | 551 kts | 101° |
| 2026-04-21 02:15 | 24.01375 | 106.15814 | 38832 ft | 551 kts | 101° |
| 2026-04-21 02:16 | 23.99748 | 106.23992 | 38810 ft | 550 kts | 101° |
| 2026-04-21 02:16 | 23.98118 | 106.32152 | 38806 ft | 549 kts | 101° |
| 2026-04-21 02:17 | 23.96489 | 106.40290 | 38809 ft | 548 kts | 101° |
| 2026-04-21 02:17 | 23.94854 | 106.48429 | 38808 ft | 548 kts | 102° |
| 2026-04-21 02:18 | 23.93228 | 106.56502 | 38808 ft | 547 kts | 101° |
| 2026-04-21 02:18 | 23.92153 | 106.64699 | 38813 ft | 545 kts | 92° |
| 2026-04-21 02:19 | 23.91624 | 106.72968 | 38804 ft | 545 kts | 92° |
| 2026-04-21 02:19 | 23.91063 | 106.81233 | 38814 ft | 546 kts | 92° |
| 2026-04-21 02:20 | 23.90497 | 106.89509 | 38817 ft | 547 kts | 92° |
| 2026-04-21 02:20 | 23.89929 | 106.97795 | 38841 ft | 547 kts | 92° |
| 2026-04-21 02:21 | 23.89354 | 107.06089 | 38843 ft | 548 kts | 92° |
| 2026-04-21 02:21 | 23.88775 | 107.14394 | 38850 ft | 547 kts | 92° |
| 2026-04-21 02:22 | 23.88192 | 107.22681 | 38849 ft | 547 kts | 92° |
| 2026-04-21 02:22 | 23.87606 | 107.30956 | 38846 ft | 547 kts | 92° |
| 2026-04-21 02:23 | 23.87014 | 107.39240 | 38857 ft | 547 kts | 92° |
| 2026-04-21 02:23 | 23.86419 | 107.47514 | 38879 ft | 546 kts | 92° |
| 2026-04-21 02:24 | 23.85820 | 107.55777 | 38873 ft | 545 kts | 92° |
| 2026-04-21 02:24 | 23.85218 | 107.64031 | 38869 ft | 545 kts | 92° |
| 2026-04-21 02:25 | 23.84611 | 107.72268 | 38857 ft | 544 kts | 92° |
| 2026-04-21 02:25 | 23.84003 | 107.80491 | 38857 ft | 542 kts | 93° |
| 2026-04-21 02:26 | 23.83421 | 107.88692 | 38866 ft | 541 kts | 91° |
| 2026-04-21 02:26 | 23.83037 | 107.96901 | 38855 ft | 541 kts | 91° |
| 2026-04-21 02:27 | 23.82649 | 108.05099 | 38847 ft | 541 kts | 91° |
| 2026-04-21 02:27 | 23.82233 | 108.13292 | 38847 ft | 540 kts | 91° |
| 2026-04-21 02:28 | 23.81797 | 108.21487 | 38845 ft | 540 kts | 91° |
| 2026-04-21 02:28 | 23.81335 | 108.29682 | 38855 ft | 541 kts | 91° |
| 2026-04-21 02:29 | 23.80870 | 108.37890 | 38848 ft | 542 kts | 91° |
| 2026-04-21 02:29 | 23.80402 | 108.46107 | 38887 ft | 541 kts | 92° |
| 2026-04-21 02:30 | 23.79933 | 108.54290 | 38871 ft | 540 kts | 92° |
| 2026-04-21 02:30 | 23.79460 | 108.62463 | 38873 ft | 539 kts | 92° |
| 2026-04-21 02:31 | 23.78986 | 108.70577 | 38871 ft | 539 kts | 92° |
| 2026-04-21 02:31 | 23.78504 | 108.78733 | 38869 ft | 538 kts | 92° |
| 2026-04-21 02:32 | 23.78018 | 108.86884 | 38861 ft | 538 kts | 92° |
| 2026-04-21 02:32 | 23.77530 | 108.95033 | 38860 ft | 538 kts | 92° |
| 2026-04-21 02:33 | 23.77037 | 109.03170 | 38858 ft | 537 kts | 92° |
| 2026-04-21 02:33 | 23.76540 | 109.11311 | 38867 ft | 538 kts | 92° |
| 2026-04-21 02:34 | 23.75398 | 109.19393 | 38869 ft | 542 kts | 102° |
| 2026-04-21 02:34 | 23.73758 | 109.27422 | 38877 ft | 541 kts | 101° |
| 2026-04-21 02:35 | 23.72147 | 109.35450 | 38875 ft | 542 kts | 101° |
| 2026-04-21 02:35 | 23.70527 | 109.43474 | 38878 ft | 542 kts | 102° |
| 2026-04-21 02:36 | 23.68900 | 109.51500 | 38881 ft | 543 kts | 101° |
| 2026-04-21 02:36 | 23.67264 | 109.59546 | 38888 ft | 543 kts | 102° |
| 2026-04-21 02:37 | 23.65620 | 109.67575 | 38898 ft | 542 kts | 102° |
| 2026-04-21 02:37 | 23.63965 | 109.75588 | 38896 ft | 542 kts | 102° |
| 2026-04-21 02:38 | 23.62302 | 109.83618 | 38903 ft | 542 kts | 102° |
| 2026-04-21 02:38 | 23.60640 | 109.91634 | 38894 ft | 542 kts | 102° |
| 2026-04-21 02:39 | 23.58972 | 109.99656 | 38907 ft | 542 kts | 102° |
| 2026-04-21 02:39 | 23.57300 | 110.07671 | 38911 ft | 542 kts | 102° |
| 2026-04-21 02:40 | 23.55624 | 110.15688 | 38906 ft | 542 kts | 102° |
| 2026-04-21 02:40 | 23.53943 | 110.23708 | 38907 ft | 543 kts | 102° |
| 2026-04-21 02:41 | 23.52257 | 110.31725 | 38905 ft | 543 kts | 102° |
| 2026-04-21 02:41 | 23.50575 | 110.39756 | 38911 ft | 544 kts | 102° |
| 2026-04-21 02:42 | 23.49222 | 110.46442 | 38914 ft | 544 kts | 101° |
| 2026-04-21 02:42 | 23.47596 | 110.54482 | 38913 ft | 544 kts | 102° |
| 2026-04-21 02:43 | 23.45689 | 110.63833 | 38923 ft | 544 kts | 102° |
| 2026-04-21 02:43 | 23.44044 | 110.71866 | 38920 ft | 544 kts | 102° |
| 2026-04-21 02:44 | 23.42639 | 110.78600 | 38917 ft | 544 kts | 102° |
| 2026-04-21 02:44 | 23.40940 | 110.86617 | 38920 ft | 544 kts | 102° |
| 2026-04-21 02:45 | 23.39240 | 110.94638 | 38918 ft | 543 kts | 102° |
| 2026-04-21 02:45 | 23.37542 | 111.02646 | 38921 ft | 543 kts | 102° |
| 2026-04-21 02:46 | 23.35838 | 111.10659 | 38917 ft | 543 kts | 102° |
| 2026-04-21 02:46 | 23.34146 | 111.18663 | 38924 ft | 543 kts | 102° |
| 2026-04-21 02:47 | 23.32517 | 111.26686 | 38921 ft | 543 kts | 102° |
| 2026-04-21 02:47 | 23.30885 | 111.34698 | 38919 ft | 543 kts | 102° |
| 2026-04-21 02:48 | 23.29240 | 111.42716 | 38924 ft | 543 kts | 102° |
| 2026-04-21 02:48 | 23.27587 | 111.50733 | 38927 ft | 543 kts | 102° |
| 2026-04-21 02:49 | 23.25918 | 111.58737 | 38928 ft | 543 kts | 102° |
| 2026-04-21 02:49 | 23.24218 | 111.66741 | 38931 ft | 543 kts | 102° |
| 2026-04-21 02:50 | 23.22518 | 111.74737 | 38932 ft | 543 kts | 102° |
| 2026-04-21 02:50 | 23.20818 | 111.82730 | 38930 ft | 543 kts | 102° |
| 2026-04-21 02:51 | 23.19144 | 111.90739 | 38926 ft | 543 kts | 102° |
| 2026-04-21 02:51 | 23.17486 | 111.98750 | 38920 ft | 543 kts | 102° |
| 2026-04-21 02:52 | 23.15826 | 112.06717 | 38945 ft | 544 kts | 102° |
| 2026-04-21 02:52 | 23.14149 | 112.14732 | 38937 ft | 545 kts | 102° |
| 2026-04-21 02:53 | 23.12466 | 112.22753 | 38940 ft | 544 kts | 102° |
| 2026-04-21 02:53 | 23.10780 | 112.30766 | 38942 ft | 544 kts | 102° |
| 2026-04-21 02:54 | 23.09089 | 112.38784 | 38956 ft | 544 kts | 102° |
| 2026-04-21 02:54 | 23.07413 | 112.46790 | 38934 ft | 543 kts | 100° |
| 2026-04-21 02:55 | 23.06573 | 112.54921 | 38932 ft | 542 kts | 92° |
| 2026-04-21 02:55 | 23.06041 | 112.63077 | 38913 ft | 541 kts | 93° |
| 2026-04-21 02:55 | 23.05765 | 112.67139 | 38724 ft | 538 kts | 92° |
| 2026-04-21 02:56 | 23.05489 | 112.71187 | 38140 ft | 537 kts | 93° |
| 2026-04-21 02:56 | 23.04937 | 112.79268 | 36619 ft | 537 kts | 93° |
| 2026-04-21 02:56 | 23.04661 | 112.83312 | 35808 ft | 538 kts | 94° |
| 2026-04-21 02:57 | 23.04382 | 112.87361 | 35052 ft | 537 kts | 94° |
| 2026-04-21 02:57 | 23.04103 | 112.91402 | 34298 ft | 536 kts | 94° |
| 2026-04-21 02:57 | 23.03824 | 112.95433 | 33456 ft | 536 kts | 94° |
| 2026-04-21 02:57 | 23.03541 | 112.99471 | 32430 ft | 538 kts | 94° |
| 2026-04-21 02:58 | 23.03256 | 113.03529 | 31395 ft | 541 kts | 94° |
| 2026-04-21 02:58 | 23.02964 | 113.07588 | 30613 ft | 537 kts | 95° |
| 2026-04-21 02:58 | 23.02273 | 113.11553 | 29906 ft | 533 kts | 106° |
| 2026-04-21 02:58 | 23.00956 | 113.15229 | 29274 ft | 525 kts | 117° |
| 2026-04-21 02:59 | 22.99060 | 113.18567 | 28617 ft | 516 kts | 129° |
| 2026-04-21 02:59 | 22.96672 | 113.21410 | 27961 ft | 506 kts | 140° |
| 2026-04-21 02:59 | 22.93887 | 113.23670 | 27310 ft | 495 kts | 152° |
| 2026-04-21 02:59 | 22.90825 | 113.25266 | 26682 ft | 483 kts | 163° |
| 2026-04-21 03:00 | 22.87611 | 113.26155 | 26059 ft | 472 kts | 175° |
| 2026-04-21 03:00 | 22.84375 | 113.26506 | 25403 ft | 464 kts | 178° |
| 2026-04-21 03:00 | 22.81183 | 113.26922 | 24777 ft | 461 kts | 173° |
| 2026-04-21 03:00 | 22.78054 | 113.27598 | 24170 ft | 456 kts | 169° |
| 2026-04-21 03:01 | 22.75002 | 113.28472 | 23581 ft | 452 kts | 166° |
| 2026-04-21 03:01 | 22.72010 | 113.29449 | 22878 ft | 447 kts | 165° |
| 2026-04-21 03:01 | 22.69063 | 113.30462 | 22150 ft | 442 kts | 165° |
| 2026-04-21 03:01 | 22.66153 | 113.31477 | 21463 ft | 437 kts | 165° |
| 2026-04-21 03:02 | 22.63275 | 113.32482 | 21052 ft | 431 kts | 165° |
| 2026-04-21 03:02 | 22.60420 | 113.33473 | 20934 ft | 433 kts | 165° |
| 2026-04-21 03:02 | 22.57538 | 113.34466 | 20931 ft | 436 kts | 165° |
| 2026-04-21 03:02 | 22.54649 | 113.35459 | 20930 ft | 436 kts | 165° |
| 2026-04-21 03:03 | 22.51760 | 113.36452 | 20931 ft | 436 kts | 165° |
| 2026-04-21 03:03 | 22.48869 | 113.37446 | 20930 ft | 436 kts | 165° |
| 2026-04-21 03:03 | 22.45980 | 113.38438 | 20934 ft | 435 kts | 165° |
| 2026-04-21 03:03 | 22.43096 | 113.39429 | 20934 ft | 436 kts | 165° |
| 2026-04-21 03:04 | 22.40204 | 113.40422 | 20932 ft | 436 kts | 165° |
| 2026-04-21 03:04 | 22.37312 | 113.41414 | 20932 ft | 436 kts | 165° |
| 2026-04-21 03:04 | 22.34422 | 113.42406 | 20936 ft | 436 kts | 165° |
| 2026-04-21 03:04 | 22.31534 | 113.43396 | 20936 ft | 435 kts | 165° |
| 2026-04-21 03:05 | 22.28652 | 113.44384 | 20938 ft | 435 kts | 165° |
| 2026-04-21 03:05 | 22.25762 | 113.45374 | 20937 ft | 436 kts | 165° |
| 2026-04-21 03:05 | 22.22880 | 113.46361 | 20937 ft | 436 kts | 165° |
| 2026-04-21 03:05 | 22.19990 | 113.47371 | 20940 ft | 436 kts | 163° |
| 2026-04-21 03:06 | 22.17123 | 113.48437 | 20931 ft | 435 kts | 163° |
| 2026-04-21 03:06 | 22.14317 | 113.49499 | 20753 ft | 421 kts | 163° |
| 2026-04-21 03:06 | 22.11597 | 113.50527 | 20514 ft | 408 kts | 163° |
| 2026-04-21 03:06 | 22.08947 | 113.51520 | 20284 ft | 402 kts | 163° |
| 2026-04-21 03:07 | 22.06335 | 113.52492 | 20004 ft | 401 kts | 163° |
| 2026-04-21 03:07 | 22.03694 | 113.53470 | 19822 ft | 402 kts | 163° |
| 2026-04-21 03:07 | 22.01038 | 113.54373 | 19585 ft | 398 kts | 171° |
| 2026-04-21 03:07 | 21.98308 | 113.54581 | 19347 ft | 391 kts | 187° |
| 2026-04-21 03:08 | 21.95688 | 113.53944 | 19129 ft | 385 kts | 204° |
| 2026-04-21 03:08 | 21.93269 | 113.52734 | 18904 ft | 383 kts | 208° |
| 2026-04-21 03:08 | 21.90862 | 113.51506 | 18689 ft | 382 kts | 207° |
| 2026-04-21 03:08 | 21.88458 | 113.50299 | 18466 ft | 381 kts | 207° |
| 2026-04-21 03:09 | 21.86059 | 113.49107 | 18242 ft | 379 kts | 207° |
| 2026-04-21 03:09 | 21.83666 | 113.47924 | 17988 ft | 377 kts | 207° |
| 2026-04-21 03:09 | 21.81285 | 113.46749 | 17735 ft | 375 kts | 207° |
| 2026-04-21 03:09 | 21.78921 | 113.45584 | 17481 ft | 373 kts | 207° |
| 2026-04-21 03:10 | 21.76568 | 113.44424 | 17228 ft | 371 kts | 207° |
| 2026-04-21 03:10 | 21.74225 | 113.43272 | 16981 ft | 369 kts | 206° |
| 2026-04-21 03:10 | 21.71750 | 113.42530 | 16730 ft | 371 kts | 188° |
| 2026-04-21 03:10 | 21.69168 | 113.42666 | 16490 ft | 376 kts | 170° |
| 2026-04-21 03:11 | 21.66728 | 113.43681 | 16231 ft | 379 kts | 152° |
| 2026-04-21 03:11 | 21.64672 | 113.45461 | 15988 ft | 382 kts | 137° |
| 2026-04-21 03:11 | 21.62825 | 113.47512 | 15765 ft | 381 kts | 136° |
| 2026-04-21 03:11 | 21.61008 | 113.49568 | 15528 ft | 379 kts | 136° |
| 2026-04-21 03:12 | 21.59183 | 113.51604 | 15286 ft | 377 kts | 137° |
| 2026-04-21 03:12 | 21.57446 | 113.53701 | 15046 ft | 378 kts | 126° |
| 2026-04-21 03:12 | 21.56326 | 113.56252 | 14818 ft | 381 kts | 107° |
| 2026-04-21 03:12 | 21.56019 | 113.59079 | 14586 ft | 383 kts | 88° |
| 2026-04-21 03:13 | 21.56568 | 113.61867 | 14358 ft | 384 kts | 68° |
| 2026-04-21 03:13 | 21.57918 | 113.64321 | 14131 ft | 382 kts | 49° |
| 2026-04-21 03:13 | 21.59852 | 113.66252 | 13916 ft | 380 kts | 37° |
| 2026-04-21 03:13 | 21.61935 | 113.67999 | 13672 ft | 379 kts | 37° |
| 2026-04-21 03:14 | 21.63966 | 113.69796 | 13423 ft | 378 kts | 39° |
| 2026-04-21 03:14 | 21.65928 | 113.71666 | 13173 ft | 377 kts | 40° |
| 2026-04-21 03:14 | 21.67889 | 113.73527 | 12925 ft | 375 kts | 40° |
| 2026-04-21 03:14 | 21.69839 | 113.75385 | 12679 ft | 373 kts | 40° |
| 2026-04-21 03:15 | 21.71766 | 113.77241 | 12431 ft | 372 kts | 41° |
| 2026-04-21 03:15 | 21.73665 | 113.79084 | 12189 ft | 371 kts | 41° |
| 2026-04-21 03:15 | 21.75572 | 113.80945 | 11939 ft | 370 kts | 41° |
| 2026-04-21 03:15 | 21.77496 | 113.82827 | 11776 ft | 368 kts | 41° |
| 2026-04-21 03:16 | 21.79392 | 113.84682 | 11675 ft | 368 kts | 41° |
| 2026-04-21 03:16 | 21.81260 | 113.86511 | 11579 ft | 368 kts | 41° |
| 2026-04-21 03:16 | 21.83144 | 113.88369 | 11501 ft | 367 kts | 44° |
| 2026-04-21 03:16 | 21.84633 | 113.90582 | 11392 ft | 368 kts | 65° |
| 2026-04-21 03:17 | 21.85320 | 113.93214 | 11298 ft | 364 kts | 86° |
| 2026-04-21 03:17 | 21.85416 | 113.95933 | 11206 ft | 364 kts | 91° |
| 2026-04-21 03:17 | 21.85440 | 113.98652 | 11114 ft | 363 kts | 91° |
| 2026-04-21 03:17 | 21.85470 | 114.01369 | 10962 ft | 362 kts | 91° |
| 2026-04-21 03:18 | 21.85556 | 114.04059 | 10743 ft | 361 kts | 90° |
| 2026-04-21 03:18 | 21.85618 | 114.06730 | 10582 ft | 348 kts | 90° |
| 2026-04-21 03:18 | 21.85665 | 114.09281 | 10491 ft | 334 kts | 90° |
| 2026-04-21 03:18 | 21.85716 | 114.11733 | 10377 ft | 321 kts | 90° |
| 2026-04-21 03:19 | 21.85772 | 114.14098 | 10204 ft | 313 kts | 90° |
| 2026-04-21 03:19 | 21.85832 | 114.16432 | 9973 ft | 310 kts | 90° |
| 2026-04-21 03:19 | 21.85894 | 114.18742 | 9843 ft | 309 kts | 90° |
| 2026-04-21 03:19 | 21.86152 | 114.21039 | 9726 ft | 310 kts | 78° |
| 2026-04-21 03:20 | 21.86849 | 114.23234 | 9594 ft | 311 kts | 66° |
| 2026-04-21 03:20 | 21.87735 | 114.25357 | 9479 ft | 310 kts | 67° |
| 2026-04-21 03:20 | 21.88594 | 114.27481 | 9340 ft | 309 kts | 68° |
| 2026-04-21 03:20 | 21.89441 | 114.29604 | 9220 ft | 308 kts | 68° |
| 2026-04-21 03:21 | 21.90282 | 114.31720 | 9106 ft | 307 kts | 68° |
| 2026-04-21 03:21 | 21.91123 | 114.33831 | 8963 ft | 306 kts | 68° |
| 2026-04-21 03:21 | 21.91962 | 114.35939 | 8850 ft | 305 kts | 68° |
| 2026-04-21 03:21 | 21.92798 | 114.38035 | 8739 ft | 305 kts | 68° |
| 2026-04-21 03:22 | 21.93629 | 114.40119 | 8590 ft | 303 kts | 68° |
| 2026-04-21 03:22 | 21.94563 | 114.42147 | 8472 ft | 302 kts | 54° |
| 2026-04-21 03:22 | 21.96107 | 114.43672 | 8348 ft | 303 kts | 29° |
| 2026-04-21 03:22 | 21.98087 | 114.44376 | 8229 ft | 300 kts | 4° |
| 2026-04-21 03:23 | 22.00146 | 114.44194 | 8116 ft | 297 kts | 345° |
| 2026-04-21 03:23 | 22.02131 | 114.43602 | 7999 ft | 296 kts | 341° |
| 2026-04-21 03:23 | 22.04108 | 114.42985 | 7875 ft | 296 kts | 342° |
| 2026-04-21 03:23 | 22.06102 | 114.42442 | 7755 ft | 296 kts | 345° |
| 2026-04-21 03:24 | 22.08114 | 114.41968 | 7628 ft | 296 kts | 347° |
| 2026-04-21 03:24 | 22.10140 | 114.41533 | 7395 ft | 298 kts | 347° |
| 2026-04-21 03:24 | 22.12186 | 114.41112 | 7070 ft | 299 kts | 348° |
| 2026-04-21 03:24 | 22.14222 | 114.40699 | 6749 ft | 295 kts | 348° |
| 2026-04-21 03:25 | 22.16231 | 114.40292 | 6425 ft | 292 kts | 348° |
| 2026-04-21 03:25 | 22.18219 | 114.39888 | 6095 ft | 289 kts | 348° |
| 2026-04-21 03:25 | 22.20135 | 114.39305 | 5889 ft | 286 kts | 339° |
| 2026-04-21 03:25 | 22.21994 | 114.38593 | 5808 ft | 291 kts | 339° |
| 2026-04-21 03:26 | 22.23918 | 114.37880 | 5662 ft | 290 kts | 340° |
| 2026-04-21 03:26 | 22.25820 | 114.37186 | 5527 ft | 288 kts | 340° |
| 2026-04-21 03:26 | 22.27714 | 114.36494 | 5409 ft | 288 kts | 340° |
| 2026-04-21 03:26 | 22.29619 | 114.35796 | 5267 ft | 288 kts | 340° |
| 2026-04-21 03:27 | 22.31501 | 114.35105 | 5150 ft | 286 kts | 340° |
| 2026-04-21 03:27 | 22.33389 | 114.34408 | 5020 ft | 287 kts | 339° |
| 2026-04-21 03:27 | 22.35279 | 114.33711 | 4894 ft | 287 kts | 339° |
| 2026-04-21 03:27 | 22.37163 | 114.33014 | 4760 ft | 287 kts | 339° |
| 2026-04-21 03:28 | 22.38994 | 114.32187 | 4630 ft | 284 kts | 324° |
| 2026-04-21 03:28 | 22.40345 | 114.30693 | 4532 ft | 276 kts | 296° |
| 2026-04-21 03:28 | 22.40951 | 114.28798 | 4530 ft | 259 kts | 278° |
| 2026-04-21 03:28 | 22.41225 | 114.26932 | 4521 ft | 244 kts | 274° |
| 2026-04-21 03:29 | 22.41450 | 114.25181 | 4528 ft | 227 kts | 275° |
| 2026-04-21 03:29 | 22.41678 | 114.23553 | 4545 ft | 210 kts | 275° |
| 2026-04-21 03:29 | 22.41924 | 114.22042 | 4521 ft | 194 kts | 276° |
| 2026-04-21 03:29 | 22.42150 | 114.20643 | 4513 ft | 187 kts | 271° |
| 2026-04-21 03:30 | 22.42076 | 114.19261 | 4458 ft | 186 kts | 254° |
| 2026-04-21 03:30 | 22.41855 | 114.18375 | 4367 ft | 182 kts | 248° |
| 2026-04-21 03:30 | 22.41292 | 114.16661 | 4311 ft | 179 kts | 246° |
| 2026-04-21 03:30 | 22.40906 | 114.15440 | 4160 ft | 170 kts | 247° |
| 2026-04-21 03:31 | 22.40650 | 114.14647 | 4020 ft | 163 kts | 246° |
| 2026-04-21 03:31 | 22.40268 | 114.13486 | 3819 ft | 165 kts | 246° |
| 2026-04-21 03:31 | 22.39890 | 114.12308 | 3812 ft | 168 kts | 247° |
| 2026-04-21 03:31 | 22.39511 | 114.11130 | 3744 ft | 166 kts | 247° |
| 2026-04-21 03:32 | 22.39129 | 114.09945 | 3548 ft | 167 kts | 247° |
| 2026-04-21 03:32 | 22.38749 | 114.08762 | 3330 ft | 167 kts | 248° |
| 2026-04-21 03:32 | 22.38372 | 114.07589 | 3100 ft | 164 kts | 247° |
| 2026-04-21 03:32 | 22.37991 | 114.06419 | 2885 ft | 167 kts | 246° |
| 2026-04-21 03:33 | 22.37614 | 114.05228 | 2663 ft | 168 kts | 248° |
| 2026-04-21 03:33 | 22.37238 | 114.04049 | 2425 ft | 166 kts | 247° |
| 2026-04-21 03:33 | 22.36845 | 114.02849 | 2221 ft | 170 kts | 246° |
| 2026-04-21 03:33 | 22.36464 | 114.01633 | 1988 ft | 170 kts | 247° |
| 2026-04-21 03:34 | 22.36078 | 114.00457 | 1753 ft | 168 kts | 247° |
| 2026-04-21 03:34 | 22.35698 | 113.99264 | 1522 ft | 166 kts | 246° |
| 2026-04-21 03:34 | 22.35318 | 113.98092 | 1310 ft | 169 kts | 247° |
| 2026-04-21 03:34 | 22.34954 | 113.96934 | 1096 ft | 152 kts | 246° |
| 2026-04-21 03:35 | 22.34622 | 113.95916 | 913 ft | 140 kts | 246° |
| 2026-04-21 03:35 | 22.34327 | 113.94980 | 738 ft | 132 kts | 247° |
| 2026-04-21 03:35 | 22.34023 | 113.94046 | 583 ft | 132 kts | 246° |
| 2026-04-21 03:35 | 22.33723 | 113.93114 | 401 ft | 136 kts | 247° |
| 2026-04-21 03:36 | 22.33407 | 113.92128 | 221 ft | 136 kts | 247° |
| 2026-04-21 03:36 | 22.33106 | 113.91193 | 46 ft | 131 kts | 247° |
| 2026-04-21 03:36 | 22.32855 | 113.90397 | 38 ft | 86 kts | 251° |
| 2026-04-21 03:36 | 22.32712 | 113.89954 | 37 ft | 52 kts | 250° |
| 2026-04-21 03:37 | 22.32610 | 113.89630 | 37 ft | 40 kts | 250° |
| 2026-04-21 03:37 | 22.32526 | 113.89374 | 37 ft | 32 kts | 245° |
| 2026-04-21 03:37 | 22.32412 | 113.89211 | 37 ft | 17 kts | 224° |
| 2026-04-21 03:37 | 22.32336 | 113.89142 | 37 ft | 11 kts | 208° |
| 2026-04-21 03:38 | 22.32306 | 113.89146 | 37 ft | 4 kts | 122° |
| 2026-04-21 03:38 | 22.32291 | 113.89187 | 37 ft | 7 kts | 93° |
| 2026-04-21 03:38 | 22.32304 | 113.89245 | 37 ft | 10 kts | 70° |
| 2026-04-21 03:38 | 22.32332 | 113.89332 | 37 ft | 15 kts | 71° |
| 2026-04-21 03:39 | 22.32369 | 113.89450 | 37 ft | 19 kts | 71° |
| 2026-04-21 03:39 | 22.32416 | 113.89595 | 37 ft | 22 kts | 71° |
| 2026-04-21 03:39 | 22.32469 | 113.89759 | 37 ft | 24 kts | 71° |
| 2026-04-21 03:39 | 22.32527 | 113.89938 | 37 ft | 26 kts | 71° |
| 2026-04-21 03:40 | 22.32580 | 113.90104 | 37 ft | 21 kts | 70° |
| 2026-04-21 03:40 | 22.32631 | 113.90262 | 37 ft | 24 kts | 71° |
| 2026-04-21 03:40 | 22.32688 | 113.90439 | 37 ft | 26 kts | 71° |
| 2026-04-21 03:40 | 22.32750 | 113.90631 | 38 ft | 28 kts | 71° |
| 2026-04-21 03:41 | 22.32815 | 113.90832 | 37 ft | 25 kts | 71° |
| 2026-04-21 03:41 | 22.32875 | 113.91016 | 37 ft | 27 kts | 71° |
| 2026-04-21 03:41 | 22.32937 | 113.91212 | 37 ft | 24 kts | 71° |
| 2026-04-21 03:41 | 22.32985 | 113.91361 | 37 ft | 22 kts | 70° |
| 2026-04-21 03:42 | 22.33039 | 113.91529 | 37 ft | 25 kts | 71° |
| 2026-04-21 03:42 | 22.33097 | 113.91715 | 37 ft | 27 kts | 71° |
| 2026-04-21 03:42 | 22.33159 | 113.91906 | 37 ft | 18 kts | 70° |
| 2026-04-21 03:42 | 22.33205 | 113.92045 | 37 ft | 21 kts | 74° |
| 2026-04-21 03:43 | 22.33140 | 113.92142 | 37 ft | 18 kts | 160° |
| 2026-04-21 03:43 | 22.33024 | 113.92186 | 37 ft | 18 kts | 161° |
| 2026-04-21 03:43 | 22.32907 | 113.92228 | 37 ft | 18 kts | 161° |
| 2026-04-21 03:43 | 22.32790 | 113.92273 | 37 ft | 18 kts | 159° |
| 2026-04-21 03:44 | 22.32673 | 113.92318 | 37 ft | 18 kts | 162° |
| 2026-04-21 03:44 | 22.32557 | 113.92358 | 37 ft | 18 kts | 161° |
| 2026-04-21 03:44 | 22.32441 | 113.92402 | 37 ft | 18 kts | 160° |
| 2026-04-21 03:44 | 22.32324 | 113.92447 | 37 ft | 18 kts | 161° |
| 2026-04-21 03:45 | 22.32250 | 113.92515 | 37 ft | 14 kts | 90° |
| 2026-04-21 03:45 | 22.32277 | 113.92630 | 37 ft | 18 kts | 70° |
| 2026-04-21 03:45 | 22.32324 | 113.92776 | 37 ft | 23 kts | 71° |
| 2026-04-21 03:45 | 22.32356 | 113.92951 | 37 ft | 25 kts | 92° |
| 2026-04-21 03:46 | 22.32349 | 113.93145 | 37 ft | 27 kts | 92° |
| 2026-04-21 03:46 | 22.32343 | 113.93329 | 37 ft | 23 kts | 92° |
| 2026-04-21 03:46 | 22.32304 | 113.93457 | 40 ft | 17 kts | 147° |
| 2026-04-21 03:46 | 22.32198 | 113.93473 | 40 ft | 15 kts | 216° |
| 2026-04-21 03:47 | 22.32134 | 113.93382 | 38 ft | 16 kts | 239° |
| 2026-04-21 03:47 | 22.32075 | 113.93272 | 37 ft | 17 kts | 239° |
| 2026-04-21 03:47 | 22.32007 | 113.93162 | 37 ft | 17 kts | 225° |
| 2026-04-21 03:47 | 22.31913 | 113.93081 | 37 ft | 17 kts | 217° |
| 2026-04-21 03:48 | 22.31842 | 113.92985 | 37 ft | 17 kts | 246° |
| 2026-04-21 03:48 | 22.31802 | 113.92866 | 37 ft | 17 kts | 251° |
| 2026-04-21 03:48 | 22.31761 | 113.92740 | 37 ft | 18 kts | 250° |
| 2026-04-21 03:48 | 22.31727 | 113.92636 | 37 ft | 15 kts | 251° |
| 2026-04-21 03:49 | 22.31693 | 113.92527 | 37 ft | 16 kts | 251° |
| 2026-04-21 03:49 | 22.31674 | 113.92470 | 37 ft | 2 kts | 234° |
| 2026-04-21 03:49 | 22.31665 | 113.92462 | 37 ft | 2 kts | 196° |
| 2026-04-21 03:49 | 22.31650 | 113.92462 | 37 ft | 3 kts | 168° |
| 2026-04-21 03:50 | 22.31626 | 113.92478 | 37 ft | 6 kts | 134° |
| 2026-04-21 03:50 | 22.31598 | 113.92524 | 37 ft | 9 kts | 119° |
| 2026-04-21 03:50 | 22.31563 | 113.92599 | 37 ft | 13 kts | 116° |
| 2026-04-21 03:50 | 22.31539 | 113.92652 | 37 ft | 6 kts | 122° |
| 2026-04-21 03:51 | 22.31508 | 113.92670 | 37 ft | 5 kts | 184° |
| 2026-04-21 03:51 | 22.31470 | 113.92660 | 37 ft | 4 kts | 204° |
| 2026-04-21 03:51 | 22.31448 | 113.92649 | 37 ft | 2 kts | 205° |
| 2026-04-21 03:51 | 22.31438 | 113.92644 | 37 ft | 0 kts | 205° |